Darstellungsparameter: Aktuell verwendete Einstellungen:
Skalierung der Graphiken ... ?
xyx+y,   Skalierungsfaktor:      Skalierung: Modus: x, Faktor: 1
Darstellungszeitraum ... ?
Vom - - bis: - -   Zeitraum: 28.03.2015 - 03.04.2015
Min/Max/Avg-Anzeige ... ?
Zeige MMA aktuell
Zeige MMA Monat
Zeige MMA alles
Zeige --A aktuell
Zeige --A Monat
Zeige --A alles
Keine MMA-Anzeige
MMA:
Average (ber die Originaldaten)
MMA-Basis: 28.03.2015 - 03.04.2015
Quicknavigation für Darstellung... ?
Tage:      1T, 2T, 3T, 5T -1T -2T -3T -5T +1T +2T +3T +5T
Wochen: 1W, 2W, 3W -1W -2W -3W +1W +2W +3W
Monate: 1M, 3M, 6M -1M -3M -6M +1M +3M +6M
Jahre:    1J, 3J, 5J, 10J -1J -3J -5J -10J +1J +3J +5J +10J
Nutze für die Darstellung ... ?
Originaldaten oder Mittelwerte auf ...
Stundenbasis Tagesbasis Wochenbasis
Monatsbasis Jahresbasis      Datenbasis: Original-Daten
Darstellen als:
Statistik (Auto) Statistik J:M      Darstellung:
Zur Graphik,    zurück zur Übersicht aller Sensoren.
 
Tabellarische Datenbersicht: ?
 
Sensor: Nr:Datum:Temp:Feuchte:
Aussen-T/F 1 28-03-2015 00:07:17 5.5 C 67 %
2 28-03-2015 00:19:17 5.4 C 67 %
3 28-03-2015 00:31:17 5.7 C 66 %
4 28-03-2015 00:43:17 5.7 C 66 %
5 28-03-2015 00:55:17 5.7 C 67 %
6 28-03-2015 01:07:17 5.9 C 66 %
7 28-03-2015 01:19:17 5.9 C 66 %
8 28-03-2015 01:31:17 5.8 C 66 %
9 28-03-2015 01:43:17 5.8 C 66 %
10 28-03-2015 01:55:17 5.6 C 68 %
11 28-03-2015 02:07:17 5.4 C 70 %
12 28-03-2015 02:19:17 5.2 C 70 %
13 28-03-2015 02:31:17 5 C 70 %
14 28-03-2015 02:43:17 4.5 C 72 %
15 28-03-2015 02:55:17 4.1 C 72 %
16 28-03-2015 03:07:17 3.7 C 73 %
17 28-03-2015 03:19:17 3.2 C 74 %
18 28-03-2015 03:31:17 3 C 75 %
19 28-03-2015 03:43:17 3.1 C 77 %
20 28-03-2015 03:55:17 3.4 C 77 %
21 28-03-2015 04:07:17 4.3 C 73 %
22 28-03-2015 04:19:17 4.1 C 72 %
23 28-03-2015 04:31:18 3.7 C 73 %
24 28-03-2015 04:43:18 3.7 C 73 %
25 28-03-2015 04:55:17 3.9 C 73 %
Sensor: Nr:Datum:Temp:Feuchte:
Aussen-T/F 26 28-03-2015 05:07:17 4.2 C 71 %
27 28-03-2015 05:19:17 4.3 C 70 %
28 28-03-2015 05:31:17 4.2 C 69 %
29 28-03-2015 05:43:17 4.3 C 69 %
30 28-03-2015 05:55:17 4.4 C 69 %
31 28-03-2015 06:07:17 4.5 C 67 %
32 28-03-2015 06:19:17 4.5 C 67 %
33 28-03-2015 06:31:17 4.5 C 68 %
34 28-03-2015 06:43:17 4.5 C 67 %
35 28-03-2015 06:55:17 4.5 C 68 %
36 28-03-2015 07:07:17 4.6 C 67 %
37 28-03-2015 07:19:17 4.7 C 66 %
38 28-03-2015 07:31:17 4.8 C 66 %
39 28-03-2015 07:43:17 5.1 C 64 %
40 28-03-2015 07:55:17 5.3 C 63 %
41 28-03-2015 08:07:17 5.6 C 62 %
42 28-03-2015 08:19:17 5.8 C 61 %
43 28-03-2015 08:31:17 6.1 C 60 %
44 28-03-2015 08:43:17 6.3 C 59 %
45 28-03-2015 08:55:17 6.4 C 59 %
46 28-03-2015 09:07:17 6.1 C 60 %
47 28-03-2015 09:19:17 6.5 C 61 %
48 28-03-2015 09:31:17 6.9 C 60 %
49 28-03-2015 09:43:17 7.3 C 59 %
50 28-03-2015 09:55:17 8.5 C 53 %
Sensor: Nr:Datum:Temp:Feuchte:
Aussen-T/F 51 28-03-2015 10:07:17 9.3 C 48 %
52 28-03-2015 10:19:17 10.3 C 43 %
53 28-03-2015 10:31:17 10.7 C 41 %
54 28-03-2015 10:43:17 11.2 C 39 %
55 28-03-2015 10:55:17 11.6 C 38 %
56 28-03-2015 11:07:17 11.8 C 38 %
57 28-03-2015 11:19:17 12 C 36 %
58 28-03-2015 11:31:17 12.2 C 37 %
59 28-03-2015 11:43:17 12.4 C 37 %
60 28-03-2015 11:55:17 12.7 C 37 %
61 28-03-2015 12:07:17 12.6 C 37 %
62 28-03-2015 12:19:18 12.4 C 38 %
63 28-03-2015 12:31:17 12.6 C 39 %
64 28-03-2015 12:43:17 12.9 C 39 %
65 28-03-2015 12:55:17 12.7 C 38 %
66 28-03-2015 13:08:17 12.7 C 39 %
67 28-03-2015 13:19:17 12.6 C 40 %
68 28-03-2015 13:31:17 12.5 C 41 %
69 28-03-2015 13:43:17 12.6 C 40 %
70 28-03-2015 13:55:17 12.5 C 41 %
71 28-03-2015 14:07:17 12.4 C 41 %
72 28-03-2015 14:19:17 11.4 C 47 %
73 28-03-2015 14:31:17 11.7 C 49 %
74 28-03-2015 14:43:17 11.2 C 53 %
75 28-03-2015 14:56:17 10.7 C 56 %
Sensor: Nr:Datum:Temp:Feuchte:
Aussen-T/F 76 28-03-2015 15:07:17 9.8 C 66 %
77 28-03-2015 15:19:17 9.6 C 71 %
78 28-03-2015 15:31:17 9.7 C 73 %
79 28-03-2015 15:43:17 9.7 C 75 %
80 28-03-2015 15:56:17 9.5 C 76 %
81 28-03-2015 16:07:17 9.3 C 79 %
82 28-03-2015 16:20:17 9.2 C 81 %
83 28-03-2015 16:31:17 8.9 C 83 %
84 28-03-2015 16:43:17 8.7 C 83 %
85 28-03-2015 16:55:17 8.5 C 85 %
86 28-03-2015 17:07:17 8.5 C 86 %
87 28-03-2015 17:20:17 8.4 C 87 %
88 28-03-2015 17:31:17 8.4 C 87 %
89 28-03-2015 17:43:17 8.5 C 87 %
90 28-03-2015 17:55:17 8.6 C 86 %
91 28-03-2015 18:07:17 8.7 C 86 %
92 28-03-2015 18:19:17 9 C 82 %
93 28-03-2015 18:31:17 9.1 C 79 %
94 28-03-2015 18:43:17 9.2 C 77 %
95 28-03-2015 18:56:17 9.4 C 75 %
96 28-03-2015 19:07:17 9 C 75 %
97 28-03-2015 19:19:17 8.6 C 77 %
98 28-03-2015 19:31:17 8.3 C 79 %
99 28-03-2015 19:43:17 8.7 C 81 %
100 28-03-2015 19:56:17 8.7 C 81 %
Sensor: Nr:Datum:Temp:Feuchte:
Aussen-T/F 101 28-03-2015 20:07:17 9.1 C 80 %
102 28-03-2015 20:20:17 9.4 C 80 %
103 28-03-2015 20:32:17 9.6 C 79 %
104 28-03-2015 20:44:17 9.4 C 79 %
105 28-03-2015 20:55:17 9.3 C 81 %
106 28-03-2015 21:07:18 9.4 C 82 %
107 28-03-2015 21:20:17 9.6 C 82 %
108 28-03-2015 21:32:17 9.7 C 82 %
109 28-03-2015 21:44:17 9.6 C 83 %
110 28-03-2015 21:55:17 9.9 C 83 %
111 28-03-2015 22:07:17 9.9 C 83 %
112 28-03-2015 22:20:17 10.1 C 81 %
113 28-03-2015 22:31:17 10.3 C 81 %
114 28-03-2015 22:43:17 10.5 C 80 %
115 28-03-2015 22:56:17 10.9 C 79 %
116 28-03-2015 23:08:17 11.2 C 77 %
117 28-03-2015 23:20:17 11.4 C 76 %
118 28-03-2015 23:32:17 11.7 C 75 %
119 28-03-2015 23:44:17 11.7 C 74 %
120 28-03-2015 23:56:17 11.9 C 72 %
121 29-03-2015 00:08:17 12.1 C 71 %
122 29-03-2015 00:19:17 12 C 70 %
123 29-03-2015 00:32:17 12.1 C 70 %
124 29-03-2015 00:44:17 12.1 C 70 %
125 29-03-2015 00:56:17 12.1 C 70 %
Sensor: Nr:Datum:Temp:Feuchte:
Aussen-T/F 126 29-03-2015 01:08:17 11.8 C 71 %
127 29-03-2015 01:20:17 12.1 C 70 %
128 29-03-2015 01:32:17 12.1 C 70 %
129 29-03-2015 01:44:17 12.1 C 70 %
130 29-03-2015 01:56:17 12.1 C 70 %
131 29-03-2015 02:08:17 11.4 C 74 %
132 29-03-2015 02:20:17 11.3 C 77 %
133 29-03-2015 02:32:17 11.3 C 77 %
134 29-03-2015 02:44:17 11.5 C 74 %
135 29-03-2015 02:56:17 11.7 C 72 %
136 29-03-2015 04:08:17 11.7 C 71 %
137 29-03-2015 04:20:17 11.7 C 70 %
138 29-03-2015 04:32:17 11.5 C 72 %
139 29-03-2015 04:44:17 11.4 C 74 %
140 29-03-2015 04:56:17 11.5 C 73 %
141 29-03-2015 05:08:17 11.3 C 72 %
142 29-03-2015 05:20:17 11.3 C 72 %
143 29-03-2015 05:32:17 11.4 C 71 %
144 29-03-2015 05:44:17 11.4 C 72 %
145 29-03-2015 05:56:17 11.5 C 70 %
146 29-03-2015 06:08:18 11.3 C 69 %
147 29-03-2015 06:20:17 11.4 C 67 %
148 29-03-2015 06:32:17 11.3 C 66 %
149 29-03-2015 06:44:17 11.3 C 65 %
150 29-03-2015 06:56:16 11.2 C 65 %
Sensor: Nr:Datum:Temp:Feuchte:
Aussen-T/F 151 29-03-2015 07:08:17 11.1 C 65 %
152 29-03-2015 07:20:17 10.9 C 67 %
153 29-03-2015 07:32:17 11 C 66 %
154 29-03-2015 07:44:17 11.1 C 66 %
155 29-03-2015 07:56:17 11.1 C 65 %
156 29-03-2015 08:08:17 11.3 C 61 %
157 29-03-2015 08:20:17 11.3 C 61 %
158 29-03-2015 08:32:17 11.2 C 61 %
159 29-03-2015 08:44:17 11.1 C 61 %
160 29-03-2015 08:56:17 11 C 61 %
161 29-03-2015 09:08:17 11 C 60 %
162 29-03-2015 09:20:17 10.9 C 59 %
163 29-03-2015 09:32:17 11 C 59 %
164 29-03-2015 09:44:17 11 C 59 %
165 29-03-2015 09:56:16 10.8 C 60 %
166 29-03-2015 10:08:17 10.8 C 60 %
167 29-03-2015 10:20:17 10.7 C 61 %
168 29-03-2015 10:32:17 10.7 C 63 %
169 29-03-2015 10:44:17 10.8 C 63 %
170 29-03-2015 10:56:17 10.7 C 65 %
171 29-03-2015 11:08:17 10.7 C 65 %
172 29-03-2015 11:20:16 10.7 C 64 %
173 29-03-2015 11:32:17 10.8 C 64 %
174 29-03-2015 11:44:17 10.9 C 66 %
175 29-03-2015 11:56:17 10.9 C 67 %
Sensor: Nr:Datum:Temp:Feuchte:
Aussen-T/F 176 29-03-2015 12:08:17 11.1 C 66 %
177 29-03-2015 12:20:17 11.1 C 67 %
178 29-03-2015 12:32:16 10.8 C 69 %
179 29-03-2015 12:44:17 10.7 C 72 %
180 29-03-2015 12:56:17 10.7 C 73 %
181 29-03-2015 13:08:17 10.6 C 74 %
182 29-03-2015 13:20:17 10.7 C 74 %
183 29-03-2015 13:32:17 10.8 C 74 %
184 29-03-2015 13:44:17 11.3 C 73 %
185 29-03-2015 13:56:16 11.3 C 71 %
186 29-03-2015 14:08:17 11.5 C 71 %
187 29-03-2015 14:20:17 11.1 C 72 %
188 29-03-2015 14:32:16 11.2 C 72 %
189 29-03-2015 14:44:16 11.5 C 71 %
190 29-03-2015 14:56:17 11.3 C 71 %
191 29-03-2015 15:08:17 11.3 C 71 %
192 29-03-2015 15:20:17 11.7 C 70 %
193 29-03-2015 15:32:17 11.9 C 69 %
194 29-03-2015 15:44:17 11.8 C 68 %
195 29-03-2015 15:56:17 11.6 C 70 %
196 29-03-2015 16:08:17 11.5 C 72 %
197 29-03-2015 16:20:16 11.8 C 72 %
198 29-03-2015 16:32:17 11.8 C 71 %
199 29-03-2015 16:44:17 11.8 C 71 %
200 29-03-2015 16:56:17 11.7 C 72 %
Sensor: Nr:Datum:Temp:Feuchte:
Aussen-T/F 201 29-03-2015 17:08:17 11.6 C 73 %
202 29-03-2015 17:20:16 11.5 C 74 %
203 29-03-2015 17:32:17 11.7 C 74 %
204 29-03-2015 17:44:17 11.4 C 76 %
205 29-03-2015 17:56:17 11.4 C 78 %
206 29-03-2015 18:08:17 11.3 C 79 %
207 29-03-2015 18:20:17 11.4 C 80 %
208 29-03-2015 18:32:17 11.3 C 80 %
209 29-03-2015 18:44:18 11.3 C 80 %
210 29-03-2015 18:56:17 11.4 C 80 %
211 29-03-2015 19:08:17 11.5 C 79 %
212 29-03-2015 19:20:17 11.8 C 77 %
213 29-03-2015 19:32:17 11.8 C 76 %
214 29-03-2015 19:44:17 12.1 C 72 %
215 29-03-2015 19:56:17 12.2 C 70 %
216 29-03-2015 20:08:17 12 C 71 %
217 29-03-2015 20:20:17 12.1 C 71 %
218 29-03-2015 20:32:17 12.2 C 71 %
219 29-03-2015 20:44:17 11.6 C 73 %
220 29-03-2015 20:56:17 11.3 C 76 %
221 29-03-2015 21:08:17 11.4 C 78 %
222 29-03-2015 21:20:17 11.2 C 78 %
223 29-03-2015 21:32:17 11.2 C 72 %
224 29-03-2015 21:44:17 11.8 C 66 %
225 29-03-2015 21:56:17 11.8 C 63 %
Sensor: Nr:Datum:Temp:Feuchte:
Aussen-T/F 226 29-03-2015 22:08:17 11.9 C 58 %
227 29-03-2015 22:20:17 11.6 C 60 %
228 29-03-2015 22:32:17 10.8 C 66 %
229 29-03-2015 22:44:17 9.6 C 73 %
230 29-03-2015 22:56:17 8.6 C 73 %
231 29-03-2015 23:08:17 8.3 C 74 %
232 29-03-2015 23:20:17 8.2 C 74 %
233 29-03-2015 23:32:17 8.4 C 75 %
234 29-03-2015 23:44:17 8.3 C 74 %
235 29-03-2015 23:56:17 8.1 C 73 %
236 30-03-2015 00:08:17 8.2 C 74 %
237 30-03-2015 00:20:17 8.2 C 73 %
238 30-03-2015 00:32:17 7.8 C 78 %
239 30-03-2015 00:44:17 7.7 C 79 %
240 30-03-2015 00:56:17 7.5 C 82 %
241 30-03-2015 01:08:17 7.4 C 84 %
242 30-03-2015 01:20:17 7.4 C 84 %
243 30-03-2015 01:32:17 7.5 C 81 %
244 30-03-2015 01:44:17 7.9 C 76 %
245 30-03-2015 01:56:17 7.9 C 74 %
246 30-03-2015 02:08:17 7.9 C 73 %
247 30-03-2015 02:20:17 7.9 C 73 %
248 30-03-2015 02:32:17 7.9 C 74 %
249 30-03-2015 02:44:18 7.7 C 76 %
250 30-03-2015 02:56:17 7.8 C 75 %
Sensor: Nr:Datum:Temp:Feuchte:
Aussen-T/F 251 30-03-2015 03:08:17 8 C 73 %
252 30-03-2015 03:20:17 7.9 C 74 %
253 30-03-2015 03:32:17 7.3 C 79 %
254 30-03-2015 03:44:17 7 C 84 %
255 30-03-2015 03:56:17 7 C 85 %
256 30-03-2015 04:08:17 6.9 C 83 %
257 30-03-2015 04:20:17 6.8 C 82 %
258 30-03-2015 04:32:17 6.8 C 82 %
259 30-03-2015 04:44:17 6.8 C 82 %
260 30-03-2015 04:56:17 6.9 C 80 %
261 30-03-2015 05:08:17 6.9 C 79 %
262 30-03-2015 05:20:17 6.8 C 80 %
263 30-03-2015 05:32:17 6.7 C 81 %
264 30-03-2015 05:44:17 6.6 C 80 %
265 30-03-2015 05:56:17 6.9 C 79 %
266 30-03-2015 06:08:17 6.7 C 78 %
267 30-03-2015 06:20:17 6.3 C 78 %
268 30-03-2015 06:32:17 5.9 C 79 %
269 30-03-2015 06:44:17 5.9 C 79 %
270 30-03-2015 06:56:17 5.7 C 79 %
271 30-03-2015 07:08:17 5.8 C 78 %
272 30-03-2015 07:20:17 6.2 C 73 %
273 30-03-2015 07:32:17 6.5 C 67 %
274 30-03-2015 07:44:17 6.4 C 65 %
275 30-03-2015 07:56:17 6.8 C 63 %
Sensor: Nr:Datum:Temp:Feuchte:
Aussen-T/F 276 30-03-2015 08:08:17 6.8 C 63 %
277 30-03-2015 08:20:17 6.7 C 65 %
278 30-03-2015 08:32:17 6.7 C 66 %
279 30-03-2015 08:44:17 6.9 C 66 %
280 30-03-2015 08:56:17 7 C 66 %
281 30-03-2015 09:08:17 7.3 C 62 %
282 30-03-2015 09:20:17 7.7 C 60 %
283 30-03-2015 09:32:17 7.8 C 58 %
284 30-03-2015 09:44:17 7.9 C 57 %
285 30-03-2015 09:56:17 8 C 55 %
286 30-03-2015 10:08:17 7.5 C 60 %
287 30-03-2015 10:20:17 7.6 C 60 %
288 30-03-2015 10:32:17 7.9 C 59 %
289 30-03-2015 10:44:17 8.2 C 58 %
290 30-03-2015 10:56:17 8.5 C 53 %
291 30-03-2015 11:08:17 9 C 48 %
292 30-03-2015 11:20:17 9.1 C 44 %
293 30-03-2015 11:32:17 9.2 C 41 %
294 30-03-2015 11:44:17 7.5 C 49 %
295 30-03-2015 11:56:17 7.6 C 54 %
296 30-03-2015 12:08:17 7.4 C 52 %
297 30-03-2015 12:20:17 8.3 C 50 %
298 30-03-2015 12:32:17 9 C 49 %
299 30-03-2015 12:44:17 9.4 C 45 %
300 30-03-2015 12:56:17 10.2 C 43 %
Sensor: Nr:Datum:Temp:Feuchte:
Aussen-T/F 301 30-03-2015 13:08:18 9.7 C 41 %
302 30-03-2015 13:20:17 9.7 C 40 %
303 30-03-2015 13:32:17 10.2 C 40 %
304 30-03-2015 13:44:17 9.7 C 41 %
305 30-03-2015 13:56:17 8.5 C 48 %
306 30-03-2015 14:08:17 7.9 C 55 %
307 30-03-2015 14:20:17 8.9 C 51 %
308 30-03-2015 14:32:17 9.4 C 50 %
309 30-03-2015 14:44:17 9.2 C 47 %
310 30-03-2015 14:56:17 9.7 C 45 %
311 30-03-2015 15:08:17 9.9 C 45 %
312 30-03-2015 15:20:17 8.4 C 51 %
313 30-03-2015 15:32:17 9.2 C 49 %
314 30-03-2015 15:44:17 9.9 C 44 %
315 30-03-2015 15:56:17 10.2 C 40 %
316 30-03-2015 16:08:17 10.1 C 39 %
317 30-03-2015 16:20:17 10.1 C 39 %
318 30-03-2015 16:32:17 10.4 C 39 %
319 30-03-2015 16:44:17 11.2 C 38 %
320 30-03-2015 16:56:17 10.5 C 40 %
321 30-03-2015 17:08:17 11.1 C 38 %
322 30-03-2015 17:20:17 10.6 C 36 %
323 30-03-2015 17:32:17 10 C 33 %
324 30-03-2015 17:44:17 10.4 C 34 %
325 30-03-2015 17:56:17 11.4 C 31 %
Sensor: Nr:Datum:Temp:Feuchte:
Aussen-T/F 326 30-03-2015 18:08:17 9.8 C 34 %
327 30-03-2015 18:20:17 9.5 C 35 %
328 30-03-2015 18:32:17 9.1 C 35 %
329 30-03-2015 18:44:17 8.9 C 35 %
330 30-03-2015 18:56:17 9.1 C 35 %
331 30-03-2015 19:08:17 9.2 C 36 %
332 30-03-2015 19:20:17 9 C 35 %
333 30-03-2015 19:32:17 8.7 C 36 %
334 30-03-2015 19:44:17 8.2 C 36 %
335 30-03-2015 19:56:17 7.9 C 40 %
336 30-03-2015 20:08:17 7.9 C 40 %
337 30-03-2015 20:20:17 7.3 C 41 %
338 30-03-2015 20:32:17 6.8 C 45 %
339 30-03-2015 20:44:17 6.2 C 48 %
340 30-03-2015 20:56:17 5.9 C 51 %
341 30-03-2015 21:08:17 5.5 C 53 %
342 30-03-2015 21:20:17 5.1 C 56 %
343 30-03-2015 21:32:17 4.8 C 59 %
344 30-03-2015 21:44:17 4.5 C 63 %
345 30-03-2015 21:56:17 4.2 C 65 %
346 30-03-2015 22:08:17 4.5 C 65 %
347 30-03-2015 22:20:17 4.6 C 66 %
348 30-03-2015 22:32:17 4.7 C 67 %
349 30-03-2015 22:44:17 4.7 C 64 %
350 30-03-2015 22:56:17 5.3 C 60 %
Sensor: Nr:Datum:Temp:Feuchte:
Aussen-T/F 351 30-03-2015 23:08:17 5.4 C 60 %
352 30-03-2015 23:20:17 5.3 C 61 %
353 30-03-2015 23:32:17 5.3 C 62 %
354 30-03-2015 23:44:17 5.4 C 62 %
355 30-03-2015 23:56:17 5.6 C 61 %
356 31-03-2015 00:08:17 5.7 C 62 %
357 31-03-2015 00:20:17 5.6 C 69 %
358 31-03-2015 00:32:17 5.6 C 74 %
359 31-03-2015 00:44:17 5.6 C 76 %
360 31-03-2015 00:56:17 5.8 C 78 %
361 31-03-2015 01:08:17 5.9 C 77 %
362 31-03-2015 01:20:17 6.3 C 73 %
363 31-03-2015 01:32:17 7 C 70 %
364 31-03-2015 01:44:17 7.2 C 68 %
365 31-03-2015 01:56:17 7.5 C 67 %
366 31-03-2015 02:08:17 7.7 C 67 %
367 31-03-2015 02:20:17 7.9 C 67 %
368 31-03-2015 02:32:17 8 C 68 %
369 31-03-2015 02:44:17 8.2 C 69 %
370 31-03-2015 02:56:17 8.4 C 70 %
371 31-03-2015 03:08:17 8.6 C 71 %
372 31-03-2015 03:20:17 8.9 C 72 %
373 31-03-2015 03:32:17 9.1 C 71 %
374 31-03-2015 03:44:17 9.2 C 72 %
375 31-03-2015 03:56:17 9.6 C 73 %
Sensor: Nr:Datum:Temp:Feuchte:
Aussen-T/F 376 31-03-2015 04:08:17 9.8 C 73 %
377 31-03-2015 04:20:17 10.4 C 71 %
378 31-03-2015 04:32:17 10.7 C 70 %
379 31-03-2015 04:44:17 11.2 C 68 %
380 31-03-2015 04:56:17 11.5 C 67 %
381 31-03-2015 05:08:17 11.9 C 65 %
382 31-03-2015 05:20:17 12.3 C 63 %
383 31-03-2015 05:32:17 12.4 C 62 %
384 31-03-2015 05:44:17 12.5 C 62 %
385 31-03-2015 05:56:17 12.6 C 61 %
386 31-03-2015 06:08:17 12.8 C 60 %
387 31-03-2015 06:20:17 12.9 C 60 %
388 31-03-2015 06:32:17 13.1 C 58 %
389 31-03-2015 06:44:17 13.2 C 59 %
390 31-03-2015 06:56:17 12.6 C 64 %
391 31-03-2015 07:08:17 11.8 C 70 %
392 31-03-2015 07:20:17 11.3 C 77 %
393 31-03-2015 07:32:17 11 C 80 %
394 31-03-2015 07:44:17 11.4 C 80 %
395 31-03-2015 07:56:17 12.4 C 67 %
396 31-03-2015 08:08:17 12.4 C 60 %
397 31-03-2015 08:20:17 12.2 C 59 %
398 31-03-2015 08:32:17 12.2 C 57 %
399 31-03-2015 08:44:17 12.1 C 57 %
400 31-03-2015 08:56:17 12 C 59 %
Sensor: Nr:Datum:Temp:Feuchte:
Aussen-T/F 401 31-03-2015 09:08:17 11.5 C 62 %
402 31-03-2015 09:20:17 11.5 C 63 %
403 31-03-2015 09:32:17 11.8 C 59 %
404 31-03-2015 09:44:17 12.3 C 55 %
405 31-03-2015 09:56:17 12.7 C 53 %
406 31-03-2015 10:08:17 12.9 C 51 %
407 31-03-2015 10:20:17 12.9 C 51 %
408 31-03-2015 10:32:17 12.8 C 52 %
409 31-03-2015 10:44:17 12.9 C 51 %
410 31-03-2015 10:56:17 13 C 48 %
411 31-03-2015 11:08:17 13.1 C 46 %
412 31-03-2015 11:20:17 10.3 C 61 %
413 31-03-2015 11:32:17 9.9 C 69 %
414 31-03-2015 11:44:17 10.4 C 66 %
415 31-03-2015 11:56:17 11.3 C 57 %
416 31-03-2015 12:08:17 9.5 C 67 %
417 31-03-2015 12:20:17 8.6 C 72 %
418 31-03-2015 12:32:17 8.1 C 77 %
419 31-03-2015 12:44:17 8.6 C 79 %
420 31-03-2015 12:56:17 8.4 C 75 %
421 31-03-2015 13:08:17 8.7 C 72 %
422 31-03-2015 13:20:17 9.1 C 71 %
423 31-03-2015 13:32:17 9.4 C 65 %
424 31-03-2015 13:44:17 9.6 C 62 %
425 31-03-2015 13:56:17 10.3 C 57 %
Sensor: Nr:Datum:Temp:Feuchte:
Aussen-T/F 426 31-03-2015 14:08:17 11.2 C 58 %
427 31-03-2015 14:20:17 10.9 C 57 %
428 31-03-2015 14:32:17 9.1 C 64 %
429 31-03-2015 14:44:17 8.5 C 63 %
430 31-03-2015 14:56:17 7.9 C 66 %
431 31-03-2015 15:08:17 8.3 C 68 %
432 31-03-2015 15:20:17 9.7 C 63 %
433 31-03-2015 15:32:17 10.6 C 56 %
434 31-03-2015 15:44:17 11 C 52 %
435 31-03-2015 15:56:17 10.6 C 51 %
436 31-03-2015 16:08:17 11.1 C 49 %
437 31-03-2015 16:20:17 12.1 C 44 %
438 31-03-2015 16:32:17 13.1 C 41 %
439 31-03-2015 16:44:17 12.8 C 38 %
440 31-03-2015 16:56:17 12.4 C 37 %
441 31-03-2015 17:08:17 13.2 C 33 %
442 31-03-2015 17:20:17 12.1 C 31 %
443 31-03-2015 17:32:17 12.7 C 33 %
444 31-03-2015 17:44:17 13.2 C 30 %
445 31-03-2015 17:56:17 11.8 C 35 %
446 31-03-2015 18:08:17 12.4 C 34 %
447 31-03-2015 18:20:17 10.9 C 36 %
448 31-03-2015 18:32:18 10.8 C 38 %
449 31-03-2015 18:44:18 10.1 C 37 %
450 31-03-2015 18:56:17 11.1 C 37 %
Sensor: Nr:Datum:Temp:Feuchte:
Aussen-T/F 451 31-03-2015 19:08:17 9.4 C 41 %
452 31-03-2015 19:20:17 9.3 C 41 %
453 31-03-2015 19:32:17 8.8 C 44 %
454 31-03-2015 19:44:17 8.7 C 45 %
455 31-03-2015 19:56:17 8.2 C 46 %
456 31-03-2015 20:08:17 7.8 C 49 %
457 31-03-2015 20:20:17 7.5 C 50 %
458 31-03-2015 20:32:17 7.4 C 52 %
459 31-03-2015 20:44:17 7.6 C 52 %
460 31-03-2015 20:56:17 7.5 C 52 %
461 31-03-2015 21:08:17 7.8 C 52 %
462 31-03-2015 21:20:17 5.2 C 67 %
463 31-03-2015 21:32:17 4.4 C 78 %
464 31-03-2015 21:44:17 4.6 C 82 %
465 31-03-2015 21:56:17 4.5 C 83 %
466 31-03-2015 22:08:17 4.4 C 84 %
467 31-03-2015 22:20:17 4.5 C 84 %
468 31-03-2015 22:32:17 4.6 C 84 %
469 31-03-2015 22:44:17 5 C 81 %
470 31-03-2015 22:56:17 4.7 C 81 %
471 31-03-2015 23:08:17 4.6 C 81 %
472 31-03-2015 23:20:17 4.7 C 81 %
473 31-03-2015 23:32:17 5.3 C 76 %
474 31-03-2015 23:44:17 5.3 C 69 %
475 31-03-2015 23:56:17 3 C 77 %
Sensor: Nr:Datum:Temp:Feuchte:
Aussen-T/F 476 01-04-2015 00:08:17 3 C 83 %
477 01-04-2015 00:20:17 3.2 C 85 %
478 01-04-2015 00:32:17 3.5 C 86 %
479 01-04-2015 00:44:17 3.6 C 85 %
480 01-04-2015 00:56:17 3.9 C 83 %
481 01-04-2015 01:08:17 4.3 C 79 %
482 01-04-2015 01:20:17 4.4 C 75 %
483 01-04-2015 01:32:17 4.4 C 74 %
484 01-04-2015 01:44:17 4.4 C 72 %
485 01-04-2015 01:56:17 4.5 C 69 %
486 01-04-2015 02:08:17 4.5 C 68 %
487 01-04-2015 02:20:17 4.4 C 67 %
488 01-04-2015 02:32:17 4.2 C 67 %
489 01-04-2015 02:44:17 4.2 C 68 %
490 01-04-2015 02:56:17 4.4 C 68 %
491 01-04-2015 03:08:17 4.4 C 66 %
492 01-04-2015 03:20:17 4.5 C 63 %
493 01-04-2015 03:32:17 4.4 C 61 %
494 01-04-2015 03:44:17 4.3 C 62 %
495 01-04-2015 03:56:17 4.5 C 61 %
496 01-04-2015 04:08:17 4.6 C 59 %
497 01-04-2015 04:20:17 4.4 C 59 %
498 01-04-2015 04:32:18 4.1 C 61 %
499 01-04-2015 04:44:18 4.2 C 63 %
500 01-04-2015 04:56:17 4.5 C 61 %
Sensor: Nr:Datum:Temp:Feuchte:
Aussen-T/F 501 01-04-2015 05:08:17 4.2 C 62 %
502 01-04-2015 05:20:17 3.7 C 65 %
503 01-04-2015 05:32:17 4.3 C 59 %
504 01-04-2015 05:44:17 3.9 C 60 %
505 01-04-2015 05:56:17 3.8 C 60 %
506 01-04-2015 06:08:17 4.3 C 57 %
507 01-04-2015 06:20:17 4.1 C 56 %
508 01-04-2015 06:32:17 4 C 56 %
509 01-04-2015 06:44:17 4 C 58 %
510 01-04-2015 06:56:17 4 C 61 %
511 01-04-2015 07:08:17 3.4 C 65 %
512 01-04-2015 07:20:17 3.5 C 65 %
513 01-04-2015 07:32:17 3.5 C 65 %
514 01-04-2015 07:44:17 3.6 C 66 %
515 01-04-2015 07:56:17 3.5 C 68 %
516 01-04-2015 08:08:17 3.5 C 70 %
517 01-04-2015 08:20:17 3.7 C 69 %
518 01-04-2015 08:32:17 3.6 C 71 %
519 01-04-2015 08:44:17 3.7 C 71 %
520 01-04-2015 08:56:17 3.7 C 71 %
521 01-04-2015 09:08:17 4.1 C 69 %
522 01-04-2015 09:20:17 4.5 C 66 %
523 01-04-2015 09:32:18 4.7 C 63 %
524 01-04-2015 09:44:18 5.1 C 59 %
525 01-04-2015 09:56:17 5.4 C 58 %
Sensor: Nr:Datum:Temp:Feuchte:
Aussen-T/F 526 01-04-2015 10:08:17 5.7 C 56 %
527 01-04-2015 10:20:17 5.7 C 55 %
528 01-04-2015 10:32:17 6 C 53 %
529 01-04-2015 10:44:17 6.1 C 54 %
530 01-04-2015 10:56:17 6.7 C 52 %
531 01-04-2015 11:08:17 6.7 C 51 %
532 01-04-2015 11:20:17 7.4 C 50 %
533 01-04-2015 11:32:17 7.1 C 49 %
534 01-04-2015 11:44:17 7.1 C 48 %
535 01-04-2015 11:56:17 7.1 C 48 %
536 01-04-2015 12:08:17 7.7 C 48 %
537 01-04-2015 12:20:17 8 C 46 %
538 01-04-2015 12:32:17 8.2 C 44 %
539 01-04-2015 12:44:17 7.6 C 46 %
540 01-04-2015 12:56:17 7.5 C 46 %
541 01-04-2015 13:08:17 7 C 47 %
542 01-04-2015 13:20:17 8.1 C 45 %
543 01-04-2015 13:32:17 7.8 C 44 %
544 01-04-2015 13:44:17 7 C 51 %
545 01-04-2015 13:56:17 5 C 69 %
546 01-04-2015 14:08:17 5.6 C 69 %
547 01-04-2015 14:20:17 6.8 C 66 %
548 01-04-2015 14:32:17 6.6 C 57 %
549 01-04-2015 14:44:17 7.7 C 55 %
550 01-04-2015 14:56:17 8.4 C 50 %
Sensor: Nr:Datum:Temp:Feuchte:
Aussen-T/F 551 01-04-2015 15:08:17 7.9 C 48 %
552 01-04-2015 15:20:17 4.1 C 69 %
553 01-04-2015 15:32:17 5.1 C 74 %
554 01-04-2015 15:44:17 6.2 C 70 %
555 01-04-2015 15:56:17 7 C 60 %
556 01-04-2015 16:08:17 7.3 C 56 %
557 01-04-2015 16:20:17 8 C 54 %
558 01-04-2015 16:32:17 7.6 C 50 %
559 01-04-2015 16:44:17 8.8 C 46 %
560 01-04-2015 16:56:17 8.3 C 42 %
561 01-04-2015 17:08:17 8.3 C 43 %
562 01-04-2015 17:20:17 7.6 C 45 %
563 01-04-2015 17:32:17 7.6 C 45 %
564 01-04-2015 17:44:17 7.9 C 42 %
565 01-04-2015 17:56:17 7.9 C 43 %
566 01-04-2015 18:08:17 8.5 C 41 %
567 01-04-2015 18:20:17 8.7 C 41 %
568 01-04-2015 18:32:17 9.4 C 38 %
569 01-04-2015 18:44:17 9.5 C 38 %
570 01-04-2015 18:56:17 9.5 C 38 %
571 01-04-2015 19:08:17 8.5 C 40 %
572 01-04-2015 19:20:17 8 C 41 %
573 01-04-2015 19:32:17 7.7 C 42 %
574 01-04-2015 19:44:17 7.4 C 44 %
575 01-04-2015 19:56:17 7 C 45 %
Sensor: Nr:Datum:Temp:Feuchte:
Aussen-T/F 576 01-04-2015 20:08:17 6.7 C 46 %
577 01-04-2015 20:20:17 6.8 C 46 %
578 01-04-2015 20:32:17 6.2 C 50 %
579 01-04-2015 20:44:17 6.7 C 48 %
580 01-04-2015 20:56:17 6.5 C 50 %
581 01-04-2015 21:08:17 6.5 C 49 %
582 01-04-2015 21:20:17 6.4 C 50 %
583 01-04-2015 21:32:17 5.9 C 54 %
584 01-04-2015 21:44:17 6 C 54 %
585 01-04-2015 21:56:17 5.8 C 55 %
586 01-04-2015 22:08:17 5.7 C 57 %
587 01-04-2015 22:20:17 5.7 C 58 %
588 01-04-2015 22:32:18 5.5 C 60 %
589 01-04-2015 22:44:18 5.4 C 60 %
590 01-04-2015 22:56:17 5.4 C 60 %
591 01-04-2015 23:08:17 5.3 C 61 %
592 01-04-2015 23:20:17 5.4 C 60 %
593 01-04-2015 23:32:17 5.5 C 61 %
594 01-04-2015 23:44:17 5.3 C 61 %
595 01-04-2015 23:56:17 5.2 C 63 %
596 02-04-2015 00:08:17 5.1 C 63 %
597 02-04-2015 00:20:17 5 C 65 %
598 02-04-2015 00:32:17 4.9 C 67 %
599 02-04-2015 00:44:17 5 C 66 %
600 02-04-2015 00:56:17 5 C 66 %
Sensor: Nr:Datum:Temp:Feuchte:
Aussen-T/F 601 02-04-2015 01:08:17 5.1 C 66 %
602 02-04-2015 01:20:17 5 C 66 %
603 02-04-2015 01:32:17 5 C 66 %
604 02-04-2015 01:44:17 5 C 66 %
605 02-04-2015 01:56:16 5 C 67 %
606 02-04-2015 02:08:17 5 C 67 %
607 02-04-2015 02:20:17 5.2 C 66 %
608 02-04-2015 02:32:17 5.2 C 66 %
609 02-04-2015 02:44:17 5.1 C 67 %
610 02-04-2015 02:56:17 5.1 C 68 %
611 02-04-2015 03:08:17 5.1 C 68 %
612 02-04-2015 03:20:17 5.1 C 68 %
613 02-04-2015 03:32:17 5.1 C 68 %
614 02-04-2015 03:44:17 4.9 C 71 %
615 02-04-2015 03:56:17 4.8 C 74 %
616 02-04-2015 04:08:17 4.8 C 74 %
617 02-04-2015 04:20:17 4.8 C 75 %
618 02-04-2015 04:32:17 4.8 C 75 %
619 02-04-2015 04:44:17 4.8 C 75 %
620 02-04-2015 04:56:16 4.8 C 75 %
621 02-04-2015 05:08:17 4.7 C 76 %
622 02-04-2015 05:20:17 4.6 C 77 %
623 02-04-2015 05:32:17 4.4 C 79 %
624 02-04-2015 05:44:17 4.5 C 79 %
625 02-04-2015 05:56:17 4.3 C 81 %
Sensor: Nr:Datum:Temp:Feuchte:
Aussen-T/F 626 02-04-2015 06:08:17 4.3 C 81 %
627 02-04-2015 06:20:17 4.2 C 82 %
628 02-04-2015 06:32:17 4.3 C 82 %
629 02-04-2015 06:44:17 4.3 C 83 %
630 02-04-2015 06:56:17 4.2 C 84 %
631 02-04-2015 07:08:17 4.1 C 85 %
632 02-04-2015 07:20:17 4.1 C 85 %
633 02-04-2015 07:32:17 4.2 C 85 %
634 02-04-2015 07:44:17 4.2 C 85 %
635 02-04-2015 07:56:17 4.2 C 86 %
636 02-04-2015 08:08:17 4.3 C 86 %
637 02-04-2015 08:20:17 4.3 C 86 %
638 02-04-2015 08:32:17 4.5 C 86 %
639 02-04-2015 08:44:17 4.5 C 87 %
640 02-04-2015 08:56:17 4.5 C 87 %
641 02-04-2015 09:08:17 4.7 C 86 %
642 02-04-2015 09:20:17 4.9 C 85 %
643 02-04-2015 09:32:17 5.1 C 84 %
644 02-04-2015 09:44:17 5.2 C 83 %
645 02-04-2015 09:56:17 5.2 C 83 %
646 02-04-2015 10:08:17 5.3 C 83 %
647 02-04-2015 10:20:17 5.5 C 82 %
648 02-04-2015 10:32:17 5.2 C 80 %
649 02-04-2015 10:44:17 5.2 C 80 %
650 02-04-2015 10:56:17 5.1 C 77 %
Sensor: Nr:Datum:Temp:Feuchte:
Aussen-T/F 651 02-04-2015 11:08:17 5.1 C 77 %
652 02-04-2015 11:20:17 5.6 C 77 %
653 02-04-2015 11:32:17 5.9 C 74 %
654 02-04-2015 11:44:17 5.9 C 70 %
655 02-04-2015 11:56:17 6.2 C 66 %
656 02-04-2015 12:08:17 6.1 C 62 %
657 02-04-2015 12:20:17 5.9 C 61 %
658 02-04-2015 12:32:17 6.1 C 60 %
659 02-04-2015 12:44:17 6.4 C 58 %
660 02-04-2015 12:56:17 7.1 C 54 %
661 02-04-2015 13:08:17 6.7 C 51 %
662 02-04-2015 13:20:17 7 C 52 %
663 02-04-2015 13:32:17 7.6 C 48 %
664 02-04-2015 13:44:17 7.9 C 46 %
665 02-04-2015 13:56:17 8.1 C 47 %
666 02-04-2015 14:08:17 7.7 C 49 %
667 02-04-2015 14:20:17 8.1 C 47 %
668 02-04-2015 14:32:17 8 C 47 %
669 02-04-2015 14:44:18 7.4 C 50 %
670 02-04-2015 14:56:17 7.9 C 49 %
671 02-04-2015 15:08:17 7.9 C 46 %
672 02-04-2015 15:20:17 8.7 C 45 %
673 02-04-2015 15:32:17 8.8 C 43 %
674 02-04-2015 15:44:17 9.2 C 40 %
675 02-04-2015 15:56:17 9 C 37 %
Sensor: Nr:Datum:Temp:Feuchte:
Aussen-T/F 676 02-04-2015 16:08:17 9.1 C 36 %
677 02-04-2015 16:20:17 9.3 C 39 %
678 02-04-2015 16:32:17 8.9 C 38 %
679 02-04-2015 16:44:17 9.1 C 36 %
680 02-04-2015 16:56:17 9 C 38 %
681 02-04-2015 17:08:17 9.8 C 36 %
682 02-04-2015 17:20:17 8.7 C 37 %
683 02-04-2015 17:32:17 8.7 C 38 %
684 02-04-2015 17:44:17 8.5 C 37 %
685 02-04-2015 17:56:17 9.5 C 36 %
686 02-04-2015 18:08:17 9.9 C 36 %
687 02-04-2015 18:20:17 9.7 C 36 %
688 02-04-2015 18:32:17 9 C 36 %
689 02-04-2015 18:44:17 10.3 C 33 %
690 02-04-2015 18:56:17 11.4 C 32 %
691 02-04-2015 19:08:17 8.8 C 36 %
692 02-04-2015 19:20:17 7.8 C 40 %
693 02-04-2015 19:32:17 7.3 C 41 %
694 02-04-2015 19:44:17 6.9 C 42 %
695 02-04-2015 19:56:17 6.8 C 43 %
696 02-04-2015 20:08:17 6.2 C 45 %
697 02-04-2015 20:20:17 6.2 C 45 %
698 02-04-2015 20:32:17 6 C 45 %
699 02-04-2015 20:44:17 5.8 C 46 %
700 02-04-2015 20:56:17 5.9 C 47 %
Sensor: Nr:Datum:Temp:Feuchte:
Aussen-T/F 701 02-04-2015 21:08:17 5.8 C 47 %
702 02-04-2015 21:20:17 5.3 C 50 %
703 02-04-2015 21:32:17 5.1 C 52 %
704 02-04-2015 21:44:17 4.6 C 55 %
705 02-04-2015 21:56:17 4.1 C 58 %
706 02-04-2015 22:08:17 4 C 59 %
707 02-04-2015 22:20:17 3.8 C 61 %
708 02-04-2015 22:32:17 3.9 C 62 %
709 02-04-2015 22:44:17 3.7 C 63 %
710 02-04-2015 22:56:17 3.9 C 62 %
711 02-04-2015 23:08:17 4.4 C 58 %
712 02-04-2015 23:20:17 4.3 C 58 %
713 02-04-2015 23:32:17 4.3 C 58 %
714 02-04-2015 23:44:17 3.7 C 61 %
715 02-04-2015 23:56:17 3.2 C 64 %
716 03-04-2015 00:08:18 3.1 C 66 %
717 03-04-2015 00:20:17 2.7 C 67 %
718 03-04-2015 00:32:17 2.8 C 68 %
719 03-04-2015 00:44:17 2.8 C 68 %
720 03-04-2015 00:56:17 2.5 C 69 %
721 03-04-2015 01:08:17 2 C 71 %
722 03-04-2015 01:20:17 1.7 C 75 %
723 03-04-2015 01:32:17 1.6 C 76 %
724 03-04-2015 01:44:17 1.4 C 77 %
725 03-04-2015 01:56:17 1.6 C 78 %
Sensor: Nr:Datum:Temp:Feuchte:
Aussen-T/F 726 03-04-2015 02:08:17 2 C 76 %
727 03-04-2015 02:20:17 2.3 C 76 %
728 03-04-2015 02:32:17 2.5 C 73 %
729 03-04-2015 02:44:17 2.6 C 71 %
730 03-04-2015 02:56:17 2.6 C 69 %
731 03-04-2015 03:08:17 2.6 C 69 %
732 03-04-2015 03:20:17 2.5 C 68 %
733 03-04-2015 03:32:17 2 C 70 %
734 03-04-2015 03:44:17 1.6 C 72 %
735 03-04-2015 03:56:17 1 C 74 %
736 03-04-2015 04:08:17 0.5 C 77 %
737 03-04-2015 04:20:17 0.5 C 79 %
738 03-04-2015 04:32:17 0.4 C 81 %
739 03-04-2015 04:44:17 0.3 C 81 %
740 03-04-2015 04:56:17 0.2 C 82 %
741 03-04-2015 05:08:18 0 C 82 %
742 03-04-2015 05:20:17 -0.3 C 83 %
743 03-04-2015 05:32:17 -0.5 C 84 %
744 03-04-2015 05:44:17 -0.5 C 85 %
745 03-04-2015 05:56:17 -0.7 C 86 %
746 03-04-2015 06:08:17 -0.8 C 86 %
747 03-04-2015 06:20:17 -0.9 C 87 %
748 03-04-2015 06:32:17 -0.8 C 87 %
749 03-04-2015 06:44:17 -0.8 C 87 %
750 03-04-2015 06:56:17 -1 C 87 %
Sensor: Nr:Datum:Temp:Feuchte:
Aussen-T/F 751 03-04-2015 07:08:17 -0.8 C 88 %
752 03-04-2015 07:20:17 -0.6 C 88 %
753 03-04-2015 07:32:17 -0.7 C 88 %
754 03-04-2015 07:44:17 -0.6 C 88 %
755 03-04-2015 07:56:17 -0.6 C 88 %
756 03-04-2015 08:08:17 -0.5 C 88 %
757 03-04-2015 08:20:17 -0.5 C 87 %
758 03-04-2015 08:32:17 -0.3 C 87 %
759 03-04-2015 08:44:17 -0.3 C 87 %
760 03-04-2015 08:56:17 -0.2 C 87 %
761 03-04-2015 09:08:17 0.1 C 87 %
762 03-04-2015 09:20:17 0.4 C 87 %
763 03-04-2015 09:32:17 1.4 C 87 %
764 03-04-2015 09:44:17 1.9 C 85 %
765 03-04-2015 09:56:17 2 C 80 %
766 03-04-2015 10:08:17 2.2 C 78 %
767 03-04-2015 10:20:16 3.2 C 75 %
768 03-04-2015 10:32:17 4.1 C 69 %
769 03-04-2015 10:44:17 4.6 C 65 %
770 03-04-2015 10:56:17 4.8 C 62 %
771 03-04-2015 11:08:17 5.2 C 61 %
772 03-04-2015 11:20:17 6 C 59 %
773 03-04-2015 11:32:17 6.7 C 54 %
774 03-04-2015 11:44:17 7 C 50 %
775 03-04-2015 11:56:17 7.3 C 48 %
Sensor: Nr:Datum:Temp:Feuchte:
Aussen-T/F 776 03-04-2015 12:08:17 7.7 C 46 %
777 03-04-2015 12:20:17 8 C 46 %
778 03-04-2015 12:32:17 8.8 C 45 %
779 03-04-2015 12:44:17 9 C 43 %
780 03-04-2015 12:56:17 9 C 42 %
781 03-04-2015 13:08:17 9.1 C 43 %
782 03-04-2015 13:20:17 9.2 C 42 %
783 03-04-2015 13:32:17 9.3 C 40 %
784 03-04-2015 13:44:17 9.4 C 41 %
785 03-04-2015 13:56:17 9.7 C 39 %
786 03-04-2015 14:08:17 10.2 C 37 %
787 03-04-2015 14:20:17 10.4 C 36 %
788 03-04-2015 14:32:17 10.8 C 36 %
789 03-04-2015 14:44:17 10.8 C 34 %
790 03-04-2015 14:56:17 10.8 C 34 %
791 03-04-2015 15:08:17 11 C 35 %
792 03-04-2015 15:20:17 11.1 C 32 %
793 03-04-2015 15:32:17 11.4 C 33 %
794 03-04-2015 15:44:17 11.5 C 33 %
795 03-04-2015 15:56:17 11.8 C 33 %
796 03-04-2015 16:08:17 12 C 31 %
797 03-04-2015 16:20:17 12.5 C 30 %
798 03-04-2015 16:32:17 12.5 C 30 %
799 03-04-2015 16:44:17 12.6 C 30 %
800 03-04-2015 16:56:17 13.1 C 29 %
Sensor: Nr:Datum:Temp:Feuchte:
Aussen-T/F 801 03-04-2015 17:08:17 13 C 29 %
802 03-04-2015 17:20:17 13 C 30 %
803 03-04-2015 17:32:17 12.8 C 29 %
804 03-04-2015 17:44:17 12.8 C 30 %
805 03-04-2015 17:56:17 13 C 28 %
806 03-04-2015 18:08:17 12.5 C 28 %
807 03-04-2015 18:20:17 12.2 C 30 %
808 03-04-2015 18:32:17 11.7 C 30 %
809 03-04-2015 18:44:17 11.3 C 33 %
810 03-04-2015 18:56:17 11 C 36 %
811 03-04-2015 19:08:17 10.2 C 42 %
812 03-04-2015 19:20:17 10.1 C 37 %
813 03-04-2015 19:32:17 9.3 C 47 %
814 03-04-2015 19:44:17 8.6 C 51 %
815 03-04-2015 19:56:17 8 C 52 %
816 03-04-2015 20:08:17 7.7 C 55 %
817 03-04-2015 20:20:17 7.6 C 56 %
818 03-04-2015 20:32:17 7.4 C 56 %
819 03-04-2015 20:44:17 7.2 C 56 %
820 03-04-2015 20:56:17 7.1 C 56 %
821 03-04-2015 21:08:17 7 C 56 %
822 03-04-2015 21:20:17 6.8 C 58 %
823 03-04-2015 21:32:17 6.6 C 58 %
824 03-04-2015 21:44:17 6.7 C 56 %
825 03-04-2015 21:56:17 6.5 C 57 %
Sensor: Nr:Datum:Temp:Feuchte:
Aussen-T/F 826 03-04-2015 22:08:17 6.3 C 59 %
827 03-04-2015 22:20:17 6.3 C 61 %
828 03-04-2015 22:32:17 6.3 C 62 %
829 03-04-2015 22:44:17 6.4 C 62 %
830 03-04-2015 22:56:17 6.3 C 62 %
831 03-04-2015 23:08:17 6.7 C 60 %
832 03-04-2015 23:20:17 6.5 C 61 %
833 03-04-2015 23:32:17 6.5 C 61 %
834 03-04-2015 23:44:17 6.7 C 61 %
835 03-04-2015 23:56:17 6.4 C 62 %
Sensor: Nr:Datum:Temp:Feuchte:
G-T/H 1 28-03-2015 00:07:17 9.7 C 66 %
2 28-03-2015 00:19:17 9.7 C 66 %
3 28-03-2015 00:31:17 9.7 C 66 %
4 28-03-2015 00:43:17 9.6 C 66 %
5 28-03-2015 00:55:17 9.6 C 66 %
6 28-03-2015 01:07:17 9.6 C 66 %
7 28-03-2015 01:19:17 9.6 C 66 %
8 28-03-2015 01:31:17 9.6 C 66 %
9 28-03-2015 01:43:17 9.6 C 66 %
10 28-03-2015 01:55:17 9.6 C 66 %
11 28-03-2015 02:07:17 9.6 C 66 %
12 28-03-2015 02:19:17 9.6 C 66 %
13 28-03-2015 02:31:17 9.6 C 66 %
14 28-03-2015 02:43:17 9.6 C 66 %
15 28-03-2015 02:55:17 9.6 C 66 %
16 28-03-2015 03:07:17 9.6 C 66 %
17 28-03-2015 03:19:17 9.6 C 66 %
18 28-03-2015 03:31:17 9.6 C 66 %
19 28-03-2015 03:43:17 9.6 C 66 %
20 28-03-2015 03:55:17 9.5 C 66 %
21 28-03-2015 04:07:17 9.5 C 66 %
22 28-03-2015 04:19:17 9.5 C 66 %
23 28-03-2015 04:31:18 9.5 C 66 %
24 28-03-2015 04:43:18 9.5 C 66 %
25 28-03-2015 04:55:17 9.5 C 66 %
Sensor: Nr:Datum:Temp:Feuchte:
G-T/H 26 28-03-2015 05:07:17 9.5 C 66 %
27 28-03-2015 05:19:17 9.5 C 66 %
28 28-03-2015 05:31:17 9.5 C 66 %
29 28-03-2015 05:43:17 9.5 C 66 %
30 28-03-2015 05:55:17 9.5 C 67 %
31 28-03-2015 06:07:17 9.5 C 67 %
32 28-03-2015 06:19:17 9.4 C 66 %
33 28-03-2015 06:31:17 9.3 C 65 %
34 28-03-2015 06:43:17 9.2 C 65 %
35 28-03-2015 06:55:17 9.2 C 64 %
36 28-03-2015 07:07:17 9.2 C 64 %
37 28-03-2015 07:19:17 9.2 C 64 %
38 28-03-2015 07:31:17 9.2 C 65 %
39 28-03-2015 07:43:17 9.2 C 65 %
40 28-03-2015 07:55:17 9.3 C 65 %
41 28-03-2015 08:07:17 9.2 C 65 %
42 28-03-2015 08:19:17 9.2 C 65 %
43 28-03-2015 08:31:17 9.3 C 66 %
44 28-03-2015 08:43:17 9.3 C 66 %
45 28-03-2015 08:55:17 9.3 C 66 %
46 28-03-2015 09:07:17 9.2 C 66 %
47 28-03-2015 09:19:17 9.3 C 66 %
48 28-03-2015 09:31:17 9.2 C 66 %
49 28-03-2015 09:43:17 9.3 C 66 %
50 28-03-2015 09:55:17 9.2 C 66 %
Sensor: Nr:Datum:Temp:Feuchte:
G-T/H 51 28-03-2015 10:07:17 9.2 C 66 %
52 28-03-2015 10:19:17 9.3 C 66 %
53 28-03-2015 10:31:17 9.3 C 67 %
54 28-03-2015 10:43:17 9.3 C 67 %
55 28-03-2015 10:55:17 9.3 C 67 %
56 28-03-2015 11:07:17 9.3 C 67 %
57 28-03-2015 11:19:17 9.3 C 67 %
58 28-03-2015 11:31:17 9.4 C 67 %
59 28-03-2015 11:43:17 9.4 C 67 %
60 28-03-2015 11:55:17 9.5 C 66 %
61 28-03-2015 12:07:17 9.6 C 66 %
62 28-03-2015 12:19:18 9.6 C 66 %
63 28-03-2015 12:31:17 9.7 C 66 %
64 28-03-2015 12:43:17 9.7 C 66 %
65 28-03-2015 12:55:17 9.7 C 67 %
66 28-03-2015 13:08:17 9.7 C 67 %
67 28-03-2015 13:19:17 9.7 C 67 %
68 28-03-2015 13:31:17 9.7 C 67 %
69 28-03-2015 13:43:17 9.7 C 67 %
70 28-03-2015 13:55:17 9.7 C 67 %
71 28-03-2015 14:07:17 9.7 C 67 %
72 28-03-2015 14:19:17 9.7 C 67 %
73 28-03-2015 14:31:17 9.7 C 67 %
74 28-03-2015 14:43:17 9.8 C 67 %
75 28-03-2015 14:56:17 9.8 C 67 %
Sensor: Nr:Datum:Temp:Feuchte:
G-T/H 76 28-03-2015 15:07:17 9.8 C 67 %
77 28-03-2015 15:19:17 9.8 C 68 %
78 28-03-2015 15:31:17 9.8 C 68 %
79 28-03-2015 15:43:17 9.8 C 68 %
80 28-03-2015 15:56:17 9.8 C 68 %
81 28-03-2015 16:07:17 9.9 C 68 %
82 28-03-2015 16:20:17 9.9 C 68 %
83 28-03-2015 16:31:17 9.9 C 68 %
84 28-03-2015 16:43:17 9.9 C 68 %
85 28-03-2015 16:55:17 9.9 C 68 %
86 28-03-2015 17:07:17 9.9 C 69 %
87 28-03-2015 17:20:17 10 C 68 %
88 28-03-2015 17:31:17 10 C 68 %
89 28-03-2015 17:43:17 10 C 68 %
90 28-03-2015 17:55:17 10 C 68 %
91 28-03-2015 18:07:17 9.9 C 69 %
92 28-03-2015 18:19:17 10 C 68 %
93 28-03-2015 18:31:17 10 C 68 %
94 28-03-2015 18:43:17 10 C 68 %
95 28-03-2015 18:56:17 10 C 68 %
96 28-03-2015 19:07:17 10 C 68 %
97 28-03-2015 19:19:17 10 C 68 %
98 28-03-2015 19:31:17 10 C 68 %
99 28-03-2015 19:43:17 10 C 68 %
100 28-03-2015 19:56:17 10 C 68 %
Sensor: Nr:Datum:Temp:Feuchte:
G-T/H 101 28-03-2015 20:07:17 10 C 68 %
102 28-03-2015 20:20:17 10 C 68 %
103 28-03-2015 20:32:17 10 C 68 %
104 28-03-2015 20:44:17 10 C 68 %
105 28-03-2015 20:55:17 10 C 68 %
106 28-03-2015 21:07:18 10 C 68 %
107 28-03-2015 21:20:17 10 C 69 %
108 28-03-2015 21:32:17 10.1 C 69 %
109 28-03-2015 21:44:17 10.1 C 69 %
110 28-03-2015 21:55:17 10.1 C 69 %
111 28-03-2015 22:07:17 10.1 C 69 %
112 28-03-2015 22:20:17 10.1 C 69 %
113 28-03-2015 22:31:17 10.1 C 69 %
114 28-03-2015 22:43:17 10.1 C 69 %
115 28-03-2015 22:56:17 10.1 C 69 %
116 28-03-2015 23:08:17 10.1 C 69 %
117 28-03-2015 23:20:17 10.1 C 69 %
118 28-03-2015 23:32:17 10.1 C 69 %
119 28-03-2015 23:44:17 10.1 C 69 %
120 28-03-2015 23:56:17 10.1 C 69 %
121 29-03-2015 00:08:17 10.1 C 69 %
122 29-03-2015 00:19:17 10.2 C 69 %
123 29-03-2015 00:32:17 10.1 C 69 %
124 29-03-2015 00:44:17 10.2 C 69 %
125 29-03-2015 00:56:17 10.2 C 69 %
Sensor: Nr:Datum:Temp:Feuchte:
G-T/H 126 29-03-2015 01:08:17 10.2 C 69 %
127 29-03-2015 01:20:17 10.2 C 69 %
128 29-03-2015 01:32:17 10.2 C 69 %
129 29-03-2015 01:44:17 10.2 C 69 %
130 29-03-2015 01:56:17 10.2 C 69 %
131 29-03-2015 02:08:17 10.2 C 69 %
132 29-03-2015 02:20:17 10.2 C 69 %
133 29-03-2015 02:32:17 10.2 C 69 %
134 29-03-2015 02:44:17 10.2 C 69 %
135 29-03-2015 02:56:17 10.2 C 69 %
136 29-03-2015 04:08:17 10.2 C 69 %
137 29-03-2015 04:20:17 10.2 C 69 %
138 29-03-2015 04:32:17 10.2 C 69 %
139 29-03-2015 04:44:17 10.2 C 69 %
140 29-03-2015 04:56:17 10.3 C 69 %
141 29-03-2015 05:08:17 10.3 C 69 %
142 29-03-2015 05:20:17 10.2 C 69 %
143 29-03-2015 05:32:17 10.3 C 69 %
144 29-03-2015 05:44:17 10.3 C 70 %
145 29-03-2015 05:56:17 10.2 C 70 %
146 29-03-2015 06:08:18 10.2 C 70 %
147 29-03-2015 06:20:17 10.3 C 70 %
148 29-03-2015 06:32:17 10.3 C 70 %
149 29-03-2015 06:44:17 10.3 C 70 %
150 29-03-2015 06:56:16 10.3 C 70 %
Sensor: Nr:Datum:Temp:Feuchte:
G-T/H 151 29-03-2015 07:08:17 10.3 C 70 %
152 29-03-2015 07:20:17 10.3 C 70 %
153 29-03-2015 07:32:17 10.3 C 70 %
154 29-03-2015 07:44:17 10.3 C 70 %
155 29-03-2015 07:56:17 10.3 C 70 %
156 29-03-2015 08:08:17 10.3 C 70 %
157 29-03-2015 08:20:17 10.3 C 70 %
158 29-03-2015 08:32:17 10.3 C 70 %
159 29-03-2015 08:44:17 10.3 C 70 %
160 29-03-2015 08:56:17 10.3 C 70 %
161 29-03-2015 09:08:17 10.3 C 70 %
162 29-03-2015 09:20:17 10.3 C 70 %
163 29-03-2015 09:32:17 10.3 C 70 %
164 29-03-2015 09:44:17 10.3 C 70 %
165 29-03-2015 09:56:16 10.4 C 70 %
166 29-03-2015 10:08:17 10.4 C 70 %
167 29-03-2015 10:20:17 10.4 C 70 %
168 29-03-2015 10:32:17 10.3 C 70 %
169 29-03-2015 10:44:17 10.4 C 70 %
170 29-03-2015 10:56:17 10.5 C 70 %
171 29-03-2015 11:08:17 10.4 C 70 %
172 29-03-2015 11:20:16 10.4 C 70 %
173 29-03-2015 11:32:17 10.4 C 70 %
174 29-03-2015 11:44:17 10.4 C 70 %
175 29-03-2015 11:56:17 10.4 C 70 %
Sensor: Nr:Datum:Temp:Feuchte:
G-T/H 176 29-03-2015 12:08:17 10.5 C 70 %
177 29-03-2015 12:20:17 10.4 C 70 %
178 29-03-2015 12:32:16 10.4 C 70 %
179 29-03-2015 12:44:17 10.4 C 70 %
180 29-03-2015 12:56:17 10.4 C 70 %
181 29-03-2015 13:08:17 10.4 C 70 %
182 29-03-2015 13:20:17 10.4 C 70 %
183 29-03-2015 13:32:17 10.4 C 70 %
184 29-03-2015 13:44:17 10.5 C 70 %
185 29-03-2015 13:56:16 10.5 C 70 %
186 29-03-2015 14:08:17 10.5 C 71 %
187 29-03-2015 14:20:17 10.5 C 71 %
188 29-03-2015 14:32:16 10.5 C 71 %
189 29-03-2015 14:44:16 10.5 C 71 %
190 29-03-2015 14:56:17 10.5 C 71 %
191 29-03-2015 15:08:17 10.5 C 71 %
192 29-03-2015 15:20:17 10.5 C 71 %
193 29-03-2015 15:32:17 10.5 C 71 %
194 29-03-2015 15:44:17 10.5 C 71 %
195 29-03-2015 15:56:17 10.5 C 71 %
196 29-03-2015 16:08:17 10.5 C 71 %
197 29-03-2015 16:20:16 10.5 C 71 %
198 29-03-2015 16:32:17 10.6 C 71 %
199 29-03-2015 16:44:17 10.6 C 71 %
200 29-03-2015 16:56:17 10.6 C 71 %
Sensor: Nr:Datum:Temp:Feuchte:
G-T/H 201 29-03-2015 17:08:17 10.6 C 71 %
202 29-03-2015 17:20:16 10.6 C 71 %
203 29-03-2015 17:32:17 10.6 C 71 %
204 29-03-2015 17:44:17 10.6 C 71 %
205 29-03-2015 17:56:17 10.7 C 71 %
206 29-03-2015 18:08:17 10.7 C 71 %
207 29-03-2015 18:20:17 10.7 C 71 %
208 29-03-2015 18:32:17 10.7 C 71 %
209 29-03-2015 18:44:18 10.7 C 71 %
210 29-03-2015 18:56:17 10.7 C 71 %
211 29-03-2015 19:08:17 10.7 C 71 %
212 29-03-2015 19:20:17 10.7 C 71 %
213 29-03-2015 19:32:17 10.7 C 71 %
214 29-03-2015 19:44:17 10.7 C 72 %
215 29-03-2015 19:56:17 10.7 C 72 %
216 29-03-2015 20:08:17 10.8 C 72 %
217 29-03-2015 20:20:17 10.7 C 72 %
218 29-03-2015 20:32:17 10.7 C 72 %
219 29-03-2015 20:44:17 10.7 C 72 %
220 29-03-2015 20:56:17 10.7 C 72 %
221 29-03-2015 21:08:17 10.7 C 72 %
222 29-03-2015 21:20:17 10.7 C 72 %
223 29-03-2015 21:32:17 10.8 C 72 %
224 29-03-2015 21:44:17 10.7 C 72 %
225 29-03-2015 21:56:17 10.8 C 72 %
Sensor: Nr:Datum:Temp:Feuchte:
G-T/H 226 29-03-2015 22:08:17 10.8 C 72 %
227 29-03-2015 22:20:17 10.8 C 72 %
228 29-03-2015 22:32:17 10.8 C 72 %
229 29-03-2015 22:44:17 10.8 C 72 %
230 29-03-2015 22:56:17 10.8 C 72 %
231 29-03-2015 23:08:17 10.7 C 72 %
232 29-03-2015 23:20:17 10.7 C 72 %
233 29-03-2015 23:32:17 10.7 C 71 %
234 29-03-2015 23:44:17 10.8 C 71 %
235 29-03-2015 23:56:17 10.7 C 71 %
236 30-03-2015 00:08:17 10.7 C 71 %
237 30-03-2015 00:20:17 10.7 C 71 %
238 30-03-2015 00:32:17 10.7 C 71 %
239 30-03-2015 00:44:17 10.7 C 71 %
240 30-03-2015 00:56:17 10.7 C 71 %
241 30-03-2015 01:08:17 10.7 C 71 %
242 30-03-2015 01:20:17 10.7 C 71 %
243 30-03-2015 01:32:17 10.7 C 71 %
244 30-03-2015 01:44:17 10.7 C 71 %
245 30-03-2015 01:56:17 10.7 C 71 %
246 30-03-2015 02:08:17 10.7 C 71 %
247 30-03-2015 02:20:17 10.7 C 71 %
248 30-03-2015 02:32:17 10.6 C 71 %
249 30-03-2015 02:44:18 10.6 C 71 %
250 30-03-2015 02:56:17 10.7 C 71 %
Sensor: Nr:Datum:Temp:Feuchte:
G-T/H 251 30-03-2015 03:08:17 10.6 C 71 %
252 30-03-2015 03:20:17 10.6 C 71 %
253 30-03-2015 03:32:17 10.7 C 71 %
254 30-03-2015 03:44:17 10.6 C 71 %
255 30-03-2015 03:56:17 10.7 C 71 %
256 30-03-2015 04:08:17 10.6 C 71 %
257 30-03-2015 04:20:17 10.6 C 71 %
258 30-03-2015 04:32:17 10.6 C 71 %
259 30-03-2015 04:44:17 10.6 C 71 %
260 30-03-2015 04:56:17 10.6 C 71 %
261 30-03-2015 05:08:17 10.6 C 71 %
262 30-03-2015 05:20:17 10.5 C 71 %
263 30-03-2015 05:32:17 10.5 C 71 %
264 30-03-2015 05:44:17 10.5 C 71 %
265 30-03-2015 05:56:17 10.5 C 71 %
266 30-03-2015 06:08:17 10.5 C 71 %
267 30-03-2015 06:20:17 10.5 C 70 %
268 30-03-2015 06:32:17 10.5 C 70 %
269 30-03-2015 06:44:17 10.5 C 70 %
270 30-03-2015 06:56:17 10.5 C 70 %
271 30-03-2015 07:08:17 10.5 C 70 %
272 30-03-2015 07:20:17 10.4 C 70 %
273 30-03-2015 07:32:17 10.3 C 69 %
274 30-03-2015 07:44:17 10.2 C 69 %
275 30-03-2015 07:56:17 10.2 C 68 %
Sensor: Nr:Datum:Temp:Feuchte:
G-T/H 276 30-03-2015 08:08:17 10.1 C 67 %
277 30-03-2015 08:20:17 10.1 C 66 %
278 30-03-2015 08:32:17 10.2 C 67 %
279 30-03-2015 08:44:17 10.2 C 67 %
280 30-03-2015 08:56:17 10.2 C 67 %
281 30-03-2015 09:08:17 10.2 C 67 %
282 30-03-2015 09:20:17 10.3 C 68 %
283 30-03-2015 09:32:17 10.3 C 68 %
284 30-03-2015 09:44:17 10.2 C 68 %
285 30-03-2015 09:56:17 10.2 C 68 %
286 30-03-2015 10:08:17 10.1 C 67 %
287 30-03-2015 10:20:17 10.1 C 66 %
288 30-03-2015 10:32:17 10.1 C 66 %
289 30-03-2015 10:44:17 10.2 C 66 %
290 30-03-2015 10:56:17 10.2 C 67 %
291 30-03-2015 11:08:17 10.2 C 67 %
292 30-03-2015 11:20:17 10.2 C 67 %
293 30-03-2015 11:32:17 10.1 C 65 %
294 30-03-2015 11:44:17 10.1 C 64 %
295 30-03-2015 11:56:17 10.1 C 63 %
296 30-03-2015 12:08:17 10 C 63 %
297 30-03-2015 12:20:17 10 C 62 %
298 30-03-2015 12:32:17 10 C 62 %
299 30-03-2015 12:44:17 10.1 C 62 %
300 30-03-2015 12:56:17 10.1 C 63 %
Sensor: Nr:Datum:Temp:Feuchte:
G-T/H 301 30-03-2015 13:08:18 10.1 C 63 %
302 30-03-2015 13:20:17 10.1 C 64 %
303 30-03-2015 13:32:17 10.2 C 64 %
304 30-03-2015 13:44:17 10.2 C 64 %
305 30-03-2015 13:56:17 10.2 C 62 %
306 30-03-2015 14:08:17 10.1 C 61 %
307 30-03-2015 14:20:17 10.1 C 62 %
308 30-03-2015 14:32:17 10.2 C 62 %
309 30-03-2015 14:44:17 10.2 C 63 %
310 30-03-2015 14:56:17 10.2 C 63 %
311 30-03-2015 15:08:17 10.2 C 64 %
312 30-03-2015 15:20:17 10.3 C 64 %
313 30-03-2015 15:32:17 10.2 C 64 %
314 30-03-2015 15:44:17 10.2 C 65 %
315 30-03-2015 15:56:17 10.3 C 65 %
316 30-03-2015 16:08:17 10.3 C 64 %
317 30-03-2015 16:20:17 10.3 C 63 %
318 30-03-2015 16:32:17 10.2 C 62 %
319 30-03-2015 16:44:17 10.3 C 63 %
320 30-03-2015 16:56:17 10.3 C 62 %
321 30-03-2015 17:08:17 10.2 C 62 %
322 30-03-2015 17:20:17 10.3 C 62 %
323 30-03-2015 17:32:17 10.3 C 62 %
324 30-03-2015 17:44:17 10.3 C 60 %
325 30-03-2015 17:56:17 10.3 C 60 %
Sensor: Nr:Datum:Temp:Feuchte:
G-T/H 326 30-03-2015 18:08:17 10.3 C 60 %
327 30-03-2015 18:20:17 10.2 C 58 %
328 30-03-2015 18:32:17 10.2 C 57 %
329 30-03-2015 18:44:17 10.3 C 58 %
330 30-03-2015 18:56:17 10.3 C 59 %
331 30-03-2015 19:08:17 10.3 C 60 %
332 30-03-2015 19:20:17 10.3 C 60 %
333 30-03-2015 19:32:17 10.3 C 61 %
334 30-03-2015 19:44:17 10.3 C 61 %
335 30-03-2015 19:56:17 10.3 C 60 %
336 30-03-2015 20:08:17 10.2 C 59 %
337 30-03-2015 20:20:17 10.1 C 57 %
338 30-03-2015 20:32:17 10.2 C 58 %
339 30-03-2015 20:44:17 10.2 C 59 %
340 30-03-2015 20:56:17 10.2 C 59 %
341 30-03-2015 21:08:17 10.2 C 60 %
342 30-03-2015 21:20:17 10.2 C 60 %
343 30-03-2015 21:32:17 10.2 C 60 %
344 30-03-2015 21:44:17 10.2 C 61 %
345 30-03-2015 21:56:17 10.1 C 61 %
346 30-03-2015 22:08:17 10 C 60 %
347 30-03-2015 22:20:17 10 C 60 %
348 30-03-2015 22:32:17 9.9 C 60 %
349 30-03-2015 22:44:17 10 C 59 %
350 30-03-2015 22:56:17 10 C 60 %
Sensor: Nr:Datum:Temp:Feuchte:
G-T/H 351 30-03-2015 23:08:17 10 C 60 %
352 30-03-2015 23:20:17 10.1 C 60 %
353 30-03-2015 23:32:17 10.1 C 61 %
354 30-03-2015 23:44:17 10.1 C 61 %
355 30-03-2015 23:56:17 10.1 C 61 %
356 31-03-2015 00:08:17 10.1 C 61 %
357 31-03-2015 00:20:17 10.1 C 62 %
358 31-03-2015 00:32:17 10.1 C 62 %
359 31-03-2015 00:44:17 10.1 C 62 %
360 31-03-2015 00:56:17 10.1 C 62 %
361 31-03-2015 01:08:17 10.1 C 63 %
362 31-03-2015 01:20:17 10.1 C 63 %
363 31-03-2015 01:32:17 10.1 C 63 %
364 31-03-2015 01:44:17 10.1 C 63 %
365 31-03-2015 01:56:17 10.1 C 63 %
366 31-03-2015 02:08:17 10.1 C 64 %
367 31-03-2015 02:20:17 10.1 C 64 %
368 31-03-2015 02:32:17 10.1 C 64 %
369 31-03-2015 02:44:17 10.1 C 64 %
370 31-03-2015 02:56:17 10.1 C 64 %
371 31-03-2015 03:08:17 10.1 C 64 %
372 31-03-2015 03:20:17 10.1 C 64 %
373 31-03-2015 03:32:17 10.1 C 65 %
374 31-03-2015 03:44:17 10 C 65 %
375 31-03-2015 03:56:17 10 C 65 %
Sensor: Nr:Datum:Temp:Feuchte:
G-T/H 376 31-03-2015 04:08:17 10.1 C 65 %
377 31-03-2015 04:20:17 10 C 65 %
378 31-03-2015 04:32:17 10.1 C 65 %
379 31-03-2015 04:44:17 10.1 C 66 %
380 31-03-2015 04:56:17 10.1 C 66 %
381 31-03-2015 05:08:17 10.1 C 66 %
382 31-03-2015 05:20:17 10.1 C 66 %
383 31-03-2015 05:32:17 10.1 C 66 %
384 31-03-2015 05:44:17 10.1 C 66 %
385 31-03-2015 05:56:17 10.1 C 66 %
386 31-03-2015 06:08:17 10.1 C 66 %
387 31-03-2015 06:20:17 10.1 C 66 %
388 31-03-2015 06:32:17 10.1 C 66 %
389 31-03-2015 06:44:17 10.1 C 67 %
390 31-03-2015 06:56:17 10.1 C 67 %
391 31-03-2015 07:08:17 10.2 C 67 %
392 31-03-2015 07:20:17 10.2 C 67 %
393 31-03-2015 07:32:17 10.2 C 67 %
394 31-03-2015 07:44:17 10.2 C 67 %
395 31-03-2015 07:56:17 10.2 C 67 %
396 31-03-2015 08:08:17 10.1 C 67 %
397 31-03-2015 08:20:17 10.2 C 67 %
398 31-03-2015 08:32:17 10.2 C 67 %
399 31-03-2015 08:44:17 10.2 C 67 %
400 31-03-2015 08:56:17 10.2 C 67 %
Sensor: Nr:Datum:Temp:Feuchte:
G-T/H 401 31-03-2015 09:08:17 10.2 C 67 %
402 31-03-2015 09:20:17 10.2 C 67 %
403 31-03-2015 09:32:17 10.2 C 67 %
404 31-03-2015 09:44:17 10.2 C 68 %
405 31-03-2015 09:56:17 10.2 C 68 %
406 31-03-2015 10:08:17 10.2 C 68 %
407 31-03-2015 10:20:17 10.3 C 68 %
408 31-03-2015 10:32:17 10.3 C 68 %
409 31-03-2015 10:44:17 10.3 C 68 %
410 31-03-2015 10:56:17 10.4 C 68 %
411 31-03-2015 11:08:17 10.4 C 68 %
412 31-03-2015 11:20:17 10.4 C 68 %
413 31-03-2015 11:32:17 10.4 C 68 %
414 31-03-2015 11:44:17 10.4 C 68 %
415 31-03-2015 11:56:17 10.4 C 68 %
416 31-03-2015 12:08:17 10.4 C 68 %
417 31-03-2015 12:20:17 10.4 C 68 %
418 31-03-2015 12:32:17 10.4 C 68 %
419 31-03-2015 12:44:17 10.4 C 68 %
420 31-03-2015 12:56:17 10.4 C 68 %
421 31-03-2015 13:08:17 10.4 C 68 %
422 31-03-2015 13:20:17 10.4 C 68 %
423 31-03-2015 13:32:17 10.4 C 68 %
424 31-03-2015 13:44:17 10.4 C 68 %
425 31-03-2015 13:56:17 10.4 C 68 %
Sensor: Nr:Datum:Temp:Feuchte:
G-T/H 426 31-03-2015 14:08:17 10.4 C 68 %
427 31-03-2015 14:20:17 10.5 C 68 %
428 31-03-2015 14:32:17 10.5 C 68 %
429 31-03-2015 14:44:17 10.5 C 68 %
430 31-03-2015 14:56:17 10.5 C 68 %
431 31-03-2015 15:08:17 10.5 C 68 %
432 31-03-2015 15:20:17 10.4 C 68 %
433 31-03-2015 15:32:17 10.5 C 68 %
434 31-03-2015 15:44:17 10.5 C 68 %
435 31-03-2015 15:56:17 10.5 C 68 %
436 31-03-2015 16:08:17 10.5 C 68 %
437 31-03-2015 16:20:17 10.5 C 68 %
438 31-03-2015 16:32:17 10.5 C 68 %
439 31-03-2015 16:44:17 10.5 C 68 %
440 31-03-2015 16:56:17 10.6 C 69 %
441 31-03-2015 17:08:17 10.5 C 68 %
442 31-03-2015 17:20:17 10.5 C 68 %
443 31-03-2015 17:32:17 10.6 C 68 %
444 31-03-2015 17:44:17 10.5 C 67 %
445 31-03-2015 17:56:17 10.6 C 66 %
446 31-03-2015 18:08:17 10.5 C 66 %
447 31-03-2015 18:20:17 10.5 C 65 %
448 31-03-2015 18:32:18 10.5 C 64 %
449 31-03-2015 18:44:18 10.5 C 63 %
450 31-03-2015 18:56:17 10.4 C 61 %
Sensor: Nr:Datum:Temp:Feuchte:
G-T/H 451 31-03-2015 19:08:17 10.4 C 60 %
452 31-03-2015 19:20:17 10.4 C 59 %
453 31-03-2015 19:32:17 10.4 C 58 %
454 31-03-2015 19:44:17 10.4 C 58 %
455 31-03-2015 19:56:17 10.4 C 59 %
456 31-03-2015 20:08:17 10.4 C 60 %
457 31-03-2015 20:20:17 10.4 C 60 %
458 31-03-2015 20:32:17 10.4 C 60 %
459 31-03-2015 20:44:17 10.2 C 58 %
460 31-03-2015 20:56:17 10.3 C 58 %
461 31-03-2015 21:08:17 10.3 C 58 %
462 31-03-2015 21:20:17 10.4 C 59 %
463 31-03-2015 21:32:17 10.3 C 60 %
464 31-03-2015 21:44:17 10.3 C 60 %
465 31-03-2015 21:56:17 10.3 C 61 %
466 31-03-2015 22:08:17 10.3 C 61 %
467 31-03-2015 22:20:17 10.3 C 61 %
468 31-03-2015 22:32:17 10.3 C 62 %
469 31-03-2015 22:44:17 10.3 C 62 %
470 31-03-2015 22:56:17 10.3 C 62 %
471 31-03-2015 23:08:17 10.3 C 62 %
472 31-03-2015 23:20:17 10.3 C 63 %
473 31-03-2015 23:32:17 10.3 C 63 %
474 31-03-2015 23:44:17 10.3 C 63 %
475 31-03-2015 23:56:17 10.2 C 63 %
Sensor: Nr:Datum:Temp:Feuchte:
G-T/H 476 01-04-2015 00:08:17 10.2 C 63 %
477 01-04-2015 00:20:17 10.2 C 63 %
478 01-04-2015 00:32:17 10.1 C 63 %
479 01-04-2015 00:44:17 10.2 C 63 %
480 01-04-2015 00:56:17 10.2 C 63 %
481 01-04-2015 01:08:17 10.2 C 63 %
482 01-04-2015 01:20:17 10.1 C 63 %
483 01-04-2015 01:32:17 10.1 C 64 %
484 01-04-2015 01:44:17 10.1 C 64 %
485 01-04-2015 01:56:17 10.1 C 64 %
486 01-04-2015 02:08:17 10.1 C 64 %
487 01-04-2015 02:20:17 10.1 C 64 %
488 01-04-2015 02:32:17 10 C 64 %
489 01-04-2015 02:44:17 10 C 64 %
490 01-04-2015 02:56:17 10 C 64 %
491 01-04-2015 03:08:17 10 C 64 %
492 01-04-2015 03:20:17 10 C 64 %
493 01-04-2015 03:32:17 10 C 64 %
494 01-04-2015 03:44:17 9.9 C 65 %
495 01-04-2015 03:56:17 9.9 C 65 %
496 01-04-2015 04:08:17 9.9 C 65 %
497 01-04-2015 04:20:17 9.9 C 65 %
498 01-04-2015 04:32:18 9.8 C 65 %
499 01-04-2015 04:44:18 9.8 C 65 %
500 01-04-2015 04:56:17 9.8 C 65 %
Sensor: Nr:Datum:Temp:Feuchte:
G-T/H 501 01-04-2015 05:08:17 9.8 C 65 %
502 01-04-2015 05:20:17 9.8 C 65 %
503 01-04-2015 05:32:17 9.7 C 65 %
504 01-04-2015 05:44:17 9.7 C 65 %
505 01-04-2015 05:56:17 9.7 C 65 %
506 01-04-2015 06:08:17 9.6 C 65 %
507 01-04-2015 06:20:17 9.6 C 64 %
508 01-04-2015 06:32:17 9.5 C 63 %
509 01-04-2015 06:44:17 9.4 C 62 %
510 01-04-2015 06:56:17 9.3 C 61 %
511 01-04-2015 07:08:17 9.3 C 61 %
512 01-04-2015 07:20:17 9.2 C 60 %
513 01-04-2015 07:32:17 9.2 C 60 %
514 01-04-2015 07:44:17 9.2 C 60 %
515 01-04-2015 07:56:17 9.2 C 60 %
516 01-04-2015 08:08:17 9.2 C 61 %
517 01-04-2015 08:20:17 9.2 C 61 %
518 01-04-2015 08:32:17 9.2 C 62 %
519 01-04-2015 08:44:17 9.2 C 62 %
520 01-04-2015 08:56:17 9.2 C 62 %
521 01-04-2015 09:08:17 9.2 C 63 %
522 01-04-2015 09:20:17 9.2 C 63 %
523 01-04-2015 09:32:18 9.2 C 63 %
524 01-04-2015 09:44:18 9.3 C 63 %
525 01-04-2015 09:56:17 9.2 C 63 %
Sensor: Nr:Datum:Temp:Feuchte:
G-T/H 526 01-04-2015 10:08:17 9.2 C 62 %
527 01-04-2015 10:20:17 9.1 C 62 %
528 01-04-2015 10:32:17 9.1 C 61 %
529 01-04-2015 10:44:17 9.1 C 60 %
530 01-04-2015 10:56:17 9.1 C 60 %
531 01-04-2015 11:08:17 9.1 C 61 %
532 01-04-2015 11:20:17 9.2 C 61 %
533 01-04-2015 11:32:17 9.2 C 61 %
534 01-04-2015 11:44:17 9.2 C 62 %
535 01-04-2015 11:56:17 9.2 C 61 %
536 01-04-2015 12:08:17 9.1 C 61 %
537 01-04-2015 12:20:17 9.1 C 60 %
538 01-04-2015 12:32:17 9.1 C 60 %
539 01-04-2015 12:44:17 9.2 C 61 %
540 01-04-2015 12:56:17 9.2 C 61 %
541 01-04-2015 13:08:17 9.2 C 61 %
542 01-04-2015 13:20:17 9.1 C 60 %
543 01-04-2015 13:32:17 9.2 C 60 %
544 01-04-2015 13:44:17 9.1 C 59 %
545 01-04-2015 13:56:17 9.2 C 59 %
546 01-04-2015 14:08:17 9.2 C 59 %
547 01-04-2015 14:20:17 9.2 C 60 %
548 01-04-2015 14:32:17 9.2 C 60 %
549 01-04-2015 14:44:17 9.3 C 61 %
550 01-04-2015 14:56:17 9.3 C 61 %
Sensor: Nr:Datum:Temp:Feuchte:
G-T/H 551 01-04-2015 15:08:17 9.3 C 61 %
552 01-04-2015 15:20:17 9.3 C 62 %
553 01-04-2015 15:32:17 9.3 C 62 %
554 01-04-2015 15:44:17 9.3 C 62 %
555 01-04-2015 15:56:17 9.3 C 62 %
556 01-04-2015 16:08:17 9.3 C 63 %
557 01-04-2015 16:20:17 9.3 C 63 %
558 01-04-2015 16:32:17 9.3 C 63 %
559 01-04-2015 16:44:17 9.3 C 63 %
560 01-04-2015 16:56:17 9.4 C 63 %
561 01-04-2015 17:08:17 9.3 C 61 %
562 01-04-2015 17:20:17 9.3 C 60 %
563 01-04-2015 17:32:17 9.2 C 60 %
564 01-04-2015 17:44:17 9.3 C 59 %
565 01-04-2015 17:56:17 9.3 C 59 %
566 01-04-2015 18:08:17 9.3 C 59 %
567 01-04-2015 18:20:17 9.3 C 60 %
568 01-04-2015 18:32:17 9.3 C 60 %
569 01-04-2015 18:44:17 9.4 C 60 %
570 01-04-2015 18:56:17 9.4 C 60 %
571 01-04-2015 19:08:17 9.4 C 61 %
572 01-04-2015 19:20:17 9.4 C 61 %
573 01-04-2015 19:32:17 9.4 C 60 %
574 01-04-2015 19:44:17 9.3 C 59 %
575 01-04-2015 19:56:17 9.4 C 58 %
Sensor: Nr:Datum:Temp:Feuchte:
G-T/H 576 01-04-2015 20:08:17 9.4 C 59 %
577 01-04-2015 20:20:17 9.4 C 59 %
578 01-04-2015 20:32:17 9.4 C 60 %
579 01-04-2015 20:44:17 9.4 C 60 %
580 01-04-2015 20:56:17 9.4 C 60 %
581 01-04-2015 21:08:17 9.4 C 61 %
582 01-04-2015 21:20:17 9.4 C 61 %
583 01-04-2015 21:32:17 9.3 C 60 %
584 01-04-2015 21:44:17 9.3 C 60 %
585 01-04-2015 21:56:17 9.3 C 60 %
586 01-04-2015 22:08:17 9.3 C 60 %
587 01-04-2015 22:20:17 9.3 C 60 %
588 01-04-2015 22:32:18 9.3 C 60 %
589 01-04-2015 22:44:18 9.3 C 61 %
590 01-04-2015 22:56:17 9.3 C 61 %
591 01-04-2015 23:08:17 9.3 C 61 %
592 01-04-2015 23:20:17 9.3 C 61 %
593 01-04-2015 23:32:17 9.3 C 62 %
594 01-04-2015 23:44:17 9.3 C 62 %
595 01-04-2015 23:56:17 9.3 C 62 %
596 02-04-2015 00:08:17 9.3 C 62 %
597 02-04-2015 00:20:17 9.3 C 62 %
598 02-04-2015 00:32:17 9.3 C 62 %
599 02-04-2015 00:44:17 9.3 C 62 %
600 02-04-2015 00:56:17 9.3 C 63 %
Sensor: Nr:Datum:Temp:Feuchte:
G-T/H 601 02-04-2015 01:08:17 9.3 C 63 %
602 02-04-2015 01:20:17 9.2 C 63 %
603 02-04-2015 01:32:17 9.3 C 63 %
604 02-04-2015 01:44:17 9.3 C 63 %
605 02-04-2015 01:56:16 9.2 C 63 %
606 02-04-2015 02:08:17 9.2 C 63 %
607 02-04-2015 02:20:17 9.3 C 63 %
608 02-04-2015 02:32:17 9.2 C 63 %
609 02-04-2015 02:44:17 9.2 C 63 %
610 02-04-2015 02:56:17 9.2 C 63 %
611 02-04-2015 03:08:17 9.2 C 64 %
612 02-04-2015 03:20:17 9.2 C 64 %
613 02-04-2015 03:32:17 9.2 C 64 %
614 02-04-2015 03:44:17 9.2 C 64 %
615 02-04-2015 03:56:17 9.2 C 64 %
616 02-04-2015 04:08:17 9.2 C 64 %
617 02-04-2015 04:20:17 9.2 C 64 %
618 02-04-2015 04:32:17 9.2 C 64 %
619 02-04-2015 04:44:17 9.2 C 64 %
620 02-04-2015 04:56:16 9.2 C 64 %
621 02-04-2015 05:08:17 9.1 C 64 %
622 02-04-2015 05:20:17 9.1 C 64 %
623 02-04-2015 05:32:17 9.1 C 64 %
624 02-04-2015 05:44:17 9.1 C 64 %
625 02-04-2015 05:56:17 9.1 C 65 %
Sensor: Nr:Datum:Temp:Feuchte:
G-T/H 626 02-04-2015 06:08:17 9.1 C 65 %
627 02-04-2015 06:20:17 9.1 C 65 %
628 02-04-2015 06:32:17 9.1 C 65 %
629 02-04-2015 06:44:17 9.1 C 65 %
630 02-04-2015 06:56:17 9.1 C 65 %
631 02-04-2015 07:08:17 9.1 C 65 %
632 02-04-2015 07:20:17 9.1 C 65 %
633 02-04-2015 07:32:17 9.1 C 65 %
634 02-04-2015 07:44:17 9.1 C 65 %
635 02-04-2015 07:56:17 9.1 C 65 %
636 02-04-2015 08:08:17 9.1 C 65 %
637 02-04-2015 08:20:17 9 C 65 %
638 02-04-2015 08:32:17 9 C 65 %
639 02-04-2015 08:44:17 9 C 65 %
640 02-04-2015 08:56:17 9 C 65 %
641 02-04-2015 09:08:17 9 C 65 %
642 02-04-2015 09:20:17 9 C 65 %
643 02-04-2015 09:32:17 9 C 65 %
644 02-04-2015 09:44:17 9 C 65 %
645 02-04-2015 09:56:17 9 C 66 %
646 02-04-2015 10:08:17 9 C 66 %
647 02-04-2015 10:20:17 9 C 66 %
648 02-04-2015 10:32:17 9 C 66 %
649 02-04-2015 10:44:17 9 C 66 %
650 02-04-2015 10:56:17 9 C 66 %
Sensor: Nr:Datum:Temp:Feuchte:
G-T/H 651 02-04-2015 11:08:17 9 C 66 %
652 02-04-2015 11:20:17 9 C 66 %
653 02-04-2015 11:32:17 9 C 66 %
654 02-04-2015 11:44:17 9 C 66 %
655 02-04-2015 11:56:17 9 C 66 %
656 02-04-2015 12:08:17 9 C 66 %
657 02-04-2015 12:20:17 9 C 66 %
658 02-04-2015 12:32:17 9 C 65 %
659 02-04-2015 12:44:17 9 C 65 %
660 02-04-2015 12:56:17 9 C 65 %
661 02-04-2015 13:08:17 9 C 65 %
662 02-04-2015 13:20:17 9 C 65 %
663 02-04-2015 13:32:17 9 C 65 %
664 02-04-2015 13:44:17 9 C 65 %
665 02-04-2015 13:56:17 9 C 63 %
666 02-04-2015 14:08:17 9 C 63 %
667 02-04-2015 14:20:17 9 C 62 %
668 02-04-2015 14:32:17 9 C 62 %
669 02-04-2015 14:44:18 9 C 62 %
670 02-04-2015 14:56:17 9 C 62 %
671 02-04-2015 15:08:17 9 C 62 %
672 02-04-2015 15:20:17 9 C 63 %
673 02-04-2015 15:32:17 9.1 C 63 %
674 02-04-2015 15:44:17 9.1 C 62 %
675 02-04-2015 15:56:17 9.1 C 61 %
Sensor: Nr:Datum:Temp:Feuchte:
G-T/H 676 02-04-2015 16:08:17 9.1 C 60 %
677 02-04-2015 16:20:17 9.1 C 59 %
678 02-04-2015 16:32:17 9.1 C 58 %
679 02-04-2015 16:44:17 9.1 C 58 %
680 02-04-2015 16:56:17 9.1 C 59 %
681 02-04-2015 17:08:17 9.1 C 59 %
682 02-04-2015 17:20:17 9.1 C 59 %
683 02-04-2015 17:32:17 9.2 C 60 %
684 02-04-2015 17:44:17 9.2 C 60 %
685 02-04-2015 17:56:17 9.2 C 60 %
686 02-04-2015 18:08:17 9.2 C 61 %
687 02-04-2015 18:20:17 9.2 C 61 %
688 02-04-2015 18:32:17 9.2 C 60 %
689 02-04-2015 18:44:17 9.2 C 59 %
690 02-04-2015 18:56:17 9.2 C 58 %
691 02-04-2015 19:08:17 9.2 C 58 %
692 02-04-2015 19:20:17 9.3 C 59 %
693 02-04-2015 19:32:17 9.3 C 59 %
694 02-04-2015 19:44:17 9.3 C 60 %
695 02-04-2015 19:56:17 9.2 C 60 %
696 02-04-2015 20:08:17 9.2 C 60 %
697 02-04-2015 20:20:17 9.3 C 61 %
698 02-04-2015 20:32:17 9.3 C 61 %
699 02-04-2015 20:44:17 9.2 C 60 %
700 02-04-2015 20:56:17 9.2 C 59 %
Sensor: Nr:Datum:Temp:Feuchte:
G-T/H 701 02-04-2015 21:08:17 9.2 C 59 %
702 02-04-2015 21:20:17 9.2 C 59 %
703 02-04-2015 21:32:17 9.2 C 60 %
704 02-04-2015 21:44:17 9.2 C 60 %
705 02-04-2015 21:56:17 9.2 C 60 %
706 02-04-2015 22:08:17 9.2 C 60 %
707 02-04-2015 22:20:17 9.2 C 61 %
708 02-04-2015 22:32:17 9.2 C 61 %
709 02-04-2015 22:44:17 9.2 C 60 %
710 02-04-2015 22:56:17 9.1 C 60 %
711 02-04-2015 23:08:17 9.1 C 59 %
712 02-04-2015 23:20:17 9.1 C 59 %
713 02-04-2015 23:32:17 9.1 C 60 %
714 02-04-2015 23:44:17 9.1 C 60 %
715 02-04-2015 23:56:17 9.1 C 60 %
716 03-04-2015 00:08:18 9.2 C 60 %
717 03-04-2015 00:20:17 9.1 C 61 %
718 03-04-2015 00:32:17 9.1 C 61 %
719 03-04-2015 00:44:17 9.1 C 61 %
720 03-04-2015 00:56:17 9.1 C 61 %
721 03-04-2015 01:08:17 9.1 C 61 %
722 03-04-2015 01:20:17 9.1 C 61 %
723 03-04-2015 01:32:17 9.1 C 62 %
724 03-04-2015 01:44:17 9.1 C 62 %
725 03-04-2015 01:56:17 9.1 C 62 %
Sensor: Nr:Datum:Temp:Feuchte:
G-T/H 726 03-04-2015 02:08:17 9.1 C 62 %
727 03-04-2015 02:20:17 9 C 62 %
728 03-04-2015 02:32:17 9.1 C 62 %
729 03-04-2015 02:44:17 9 C 62 %
730 03-04-2015 02:56:17 9.1 C 62 %
731 03-04-2015 03:08:17 9 C 62 %
732 03-04-2015 03:20:17 9 C 62 %
733 03-04-2015 03:32:17 9 C 62 %
734 03-04-2015 03:44:17 9 C 62 %
735 03-04-2015 03:56:17 9 C 62 %
736 03-04-2015 04:08:17 8.9 C 63 %
737 03-04-2015 04:20:17 8.9 C 63 %
738 03-04-2015 04:32:17 8.9 C 63 %
739 03-04-2015 04:44:17 8.9 C 63 %
740 03-04-2015 04:56:17 8.9 C 63 %
741 03-04-2015 05:08:18 8.9 C 63 %
742 03-04-2015 05:20:17 8.8 C 63 %
743 03-04-2015 05:32:17 8.8 C 63 %
744 03-04-2015 05:44:17 8.8 C 63 %
745 03-04-2015 05:56:17 8.7 C 63 %
746 03-04-2015 06:08:17 8.7 C 63 %
747 03-04-2015 06:20:17 8.6 C 62 %
748 03-04-2015 06:32:17 8.5 C 61 %
749 03-04-2015 06:44:17 8.4 C 61 %
750 03-04-2015 06:56:17 8.3 C 60 %
Sensor: Nr:Datum:Temp:Feuchte:
G-T/H 751 03-04-2015 07:08:17 8.3 C 60 %
752 03-04-2015 07:20:17 8.2 C 59 %
753 03-04-2015 07:32:17 8.2 C 59 %
754 03-04-2015 07:44:17 8.2 C 59 %
755 03-04-2015 07:56:17 8.2 C 60 %
756 03-04-2015 08:08:17 8.2 C 60 %
757 03-04-2015 08:20:17 8.2 C 60 %
758 03-04-2015 08:32:17 8.2 C 61 %
759 03-04-2015 08:44:17 8.2 C 61 %
760 03-04-2015 08:56:17 8.2 C 61 %
761 03-04-2015 09:08:17 8.2 C 60 %
762 03-04-2015 09:20:17 8.1 C 60 %
763 03-04-2015 09:32:17 8.1 C 60 %
764 03-04-2015 09:44:17 8.1 C 59 %
765 03-04-2015 09:56:17 8 C 59 %
766 03-04-2015 10:08:17 8 C 60 %
767 03-04-2015 10:20:16 8.1 C 60 %
768 03-04-2015 10:32:17 8.1 C 61 %
769 03-04-2015 10:44:17 8.1 C 61 %
770 03-04-2015 10:56:17 8.2 C 61 %
771 03-04-2015 11:08:17 8.2 C 61 %
772 03-04-2015 11:20:17 8.2 C 62 %
773 03-04-2015 11:32:17 8.2 C 62 %
774 03-04-2015 11:44:17 8.2 C 62 %
775 03-04-2015 11:56:17 8.2 C 62 %
Sensor: Nr:Datum:Temp:Feuchte:
G-T/H 776 03-04-2015 12:08:17 8.2 C 62 %
777 03-04-2015 12:20:17 8.3 C 63 %
778 03-04-2015 12:32:17 8.3 C 63 %
779 03-04-2015 12:44:17 8.3 C 63 %
780 03-04-2015 12:56:17 8.3 C 63 %
781 03-04-2015 13:08:17 8.4 C 63 %
782 03-04-2015 13:20:17 8.4 C 63 %
783 03-04-2015 13:32:17 8.4 C 63 %
784 03-04-2015 13:44:17 8.4 C 63 %
785 03-04-2015 13:56:17 8.4 C 63 %
786 03-04-2015 14:08:17 8.4 C 64 %
787 03-04-2015 14:20:17 8.5 C 64 %
788 03-04-2015 14:32:17 8.5 C 63 %
789 03-04-2015 14:44:17 8.5 C 62 %
790 03-04-2015 14:56:17 8.6 C 61 %
791 03-04-2015 15:08:17 8.6 C 60 %
792 03-04-2015 15:20:17 8.6 C 59 %
793 03-04-2015 15:32:17 8.7 C 59 %
794 03-04-2015 15:44:17 8.7 C 58 %
795 03-04-2015 15:56:17 8.7 C 58 %
796 03-04-2015 16:08:17 8.7 C 59 %
797 03-04-2015 16:20:17 8.8 C 59 %
798 03-04-2015 16:32:17 8.8 C 60 %
799 03-04-2015 16:44:17 8.9 C 60 %
800 03-04-2015 16:56:17 8.9 C 61 %
Sensor: Nr:Datum:Temp:Feuchte:
G-T/H 801 03-04-2015 17:08:17 8.9 C 61 %
802 03-04-2015 17:20:17 8.9 C 61 %
803 03-04-2015 17:32:17 9 C 61 %
804 03-04-2015 17:44:17 9 C 60 %
805 03-04-2015 17:56:17 9.1 C 60 %
806 03-04-2015 18:08:17 9.1 C 59 %
807 03-04-2015 18:20:17 9.1 C 59 %
808 03-04-2015 18:32:17 9.1 C 58 %
809 03-04-2015 18:44:17 9.1 C 58 %
810 03-04-2015 18:56:17 9.1 C 58 %
811 03-04-2015 19:08:17 9.1 C 59 %
812 03-04-2015 19:20:17 9.1 C 59 %
813 03-04-2015 19:32:17 9.1 C 60 %
814 03-04-2015 19:44:17 9.2 C 60 %
815 03-04-2015 19:56:17 9.2 C 60 %
816 03-04-2015 20:08:17 9.2 C 61 %
817 03-04-2015 20:20:17 9.2 C 61 %
818 03-04-2015 20:32:17 9.2 C 61 %
819 03-04-2015 20:44:17 9.2 C 61 %
820 03-04-2015 20:56:17 9.2 C 62 %
821 03-04-2015 21:08:17 9.3 C 62 %
822 03-04-2015 21:20:17 9.3 C 62 %
823 03-04-2015 21:32:17 9.3 C 62 %
824 03-04-2015 21:44:17 9.3 C 62 %
825 03-04-2015 21:56:17 9.3 C 62 %
Sensor: Nr:Datum:Temp:Feuchte:
G-T/H 826 03-04-2015 22:08:17 9.3 C 62 %
827 03-04-2015 22:20:17 9.3 C 62 %
828 03-04-2015 22:32:17 9.3 C 63 %
829 03-04-2015 22:44:17 9.3 C 63 %
830 03-04-2015 22:56:17 9.4 C 63 %
831 03-04-2015 23:08:17 9.3 C 63 %
832 03-04-2015 23:20:17 9.4 C 63 %
833 03-04-2015 23:32:17 9.4 C 63 %
834 03-04-2015 23:44:17 9.4 C 63 %
835 03-04-2015 23:56:17 9.4 C 63 %

Legende:
   Min
   Max


Maximal/Minimal-Werte vom 28.03.2015 - 03.04.2015

Sensor Min Max Avg
Temp
(Aussen-T/F)
-1 °C
03-04-2015  06:56:17
13.2 °C
31-03-2015  06:44:17
7.67 °C
Feuchte
(Aussen-T/F)
28 %
03-04-2015  17:56:17
88 %
03-04-2015  07:08:17
62.27 %
Temp
(G-T/H)
8 °C
03-04-2015  09:56:17
10.8 °C
29-03-2015  20:08:17
9.72 °C
Feuchte
(G-T/H)
57 %
30-03-2015  18:32:17
72 %
29-03-2015  19:44:17
64.73 %

Die Daten stammen von einer Davis Vantage Pro 2 Wetter-Station und werden unter Linux mit der Software wview2wettercgi und aufbereitet. Alle Angaben erfolgen ohne Gewähr für ihre Vollständigkeit oder Richtigkeit.
Kontakt: Rainer Krienke krienke@uni-koblenz.de . Meine Webseiten an der Uni Koblenz oder privat.
Version: $Revision: 0.78 $